<?xml version="1.0" encoding="UTF-8" standalone="no" ?>
<gpx xmlns="http://www.topografix.com/GPX/1/1" xmlns:xsi="http://www.w3.org/2001/XMLSchema-instance" xsi:schemaLocation="http://www.topografix.com/GPX/1/1 http://www.topografix.com/GPX/1/1/gpx.xsd" version="1.1" creator="VisuGPX - https://www.visugpx.com">
  <metadata>
    <name>VTT-2-charquemon</name>
    <desc><![CDATA[parcours terre, chemin, valloné]]></desc>
  </metadata>
  <trk>
    <name><![CDATA[VTT-j-2-charquemont-sthippolite on GPSies.com]]></name>
    <trkseg>
      <trkpt lat="47.21336" lon="6.8238">
        <ele>866</ele>
        <time>2010-01-01T00:00:00Z</time>
      </trkpt>
      <trkpt lat="47.2131" lon="6.82334">
        <ele>866</ele>
        <time>2010-01-01T00:00:16Z</time>
      </trkpt>
      <trkpt lat="47.21309" lon="6.82317">
        <ele>865</ele>
        <time>2010-01-01T00:00:20Z</time>
      </trkpt>
      <trkpt lat="47.21296" lon="6.82324">
        <ele>865</ele>
        <time>2010-01-01T00:00:26Z</time>
      </trkpt>
      <trkpt lat="47.21227" lon="6.82323">
        <ele>862</ele>
        <time>2010-01-01T00:00:54Z</time>
      </trkpt>
      <trkpt lat="47.2094" lon="6.82445">
        <ele>851</ele>
        <time>2010-01-01T00:02:53Z</time>
      </trkpt>
      <trkpt lat="47.2093" lon="6.82458">
        <ele>851</ele>
        <time>2010-01-01T00:02:59Z</time>
      </trkpt>
      <trkpt lat="47.2047" lon="6.82749">
        <ele>839</ele>
        <time>2010-01-01T00:06:19Z</time>
      </trkpt>
      <trkpt lat="47.20431" lon="6.82793">
        <ele>840</ele>
        <time>2010-01-01T00:06:39Z</time>
      </trkpt>
      <trkpt lat="47.20409" lon="6.82849">
        <ele>841</ele>
        <time>2010-01-01T00:06:56Z</time>
      </trkpt>
      <trkpt lat="47.20318" lon="6.83289">
        <ele>840</ele>
        <time>2010-01-01T00:09:01Z</time>
      </trkpt>
      <trkpt lat="47.20255" lon="6.83585">
        <ele>842</ele>
        <time>2010-01-01T00:10:26Z</time>
      </trkpt>
      <trkpt lat="47.20255" lon="6.83753">
        <ele>848</ele>
        <time>2010-01-01T00:11:11Z</time>
      </trkpt>
      <trkpt lat="47.20244" lon="6.83803">
        <ele>852</ele>
        <time>2010-01-01T00:11:26Z</time>
      </trkpt>
      <trkpt lat="47.2017" lon="6.83931">
        <ele>873</ele>
        <time>2010-01-01T00:12:11Z</time>
      </trkpt>
      <trkpt lat="47.20156" lon="6.83947">
        <ele>875</ele>
        <time>2010-01-01T00:12:18Z</time>
      </trkpt>
      <trkpt lat="47.20083" lon="6.84009">
        <ele>872</ele>
        <time>2010-01-01T00:12:52Z</time>
      </trkpt>
      <trkpt lat="47.20028" lon="6.84049">
        <ele>879</ele>
        <time>2010-01-01T00:13:17Z</time>
      </trkpt>
      <trkpt lat="47.19982" lon="6.84057">
        <ele>885</ele>
        <time>2010-01-01T00:13:35Z</time>
      </trkpt>
      <trkpt lat="47.19898" lon="6.84053">
        <ele>899</ele>
        <time>2010-01-01T00:14:09Z</time>
      </trkpt>
      <trkpt lat="47.19897" lon="6.84053">
        <ele>899</ele>
        <time>2010-01-01T00:14:09Z</time>
      </trkpt>
      <trkpt lat="47.19843" lon="6.8405">
        <ele>903</ele>
        <time>2010-01-01T00:14:31Z</time>
      </trkpt>
      <trkpt lat="47.19742" lon="6.84035">
        <ele>910</ele>
        <time>2010-01-01T00:15:12Z</time>
      </trkpt>
      <trkpt lat="47.19701" lon="6.84015">
        <ele>909</ele>
        <time>2010-01-01T00:15:29Z</time>
      </trkpt>
      <trkpt lat="47.19668" lon="6.84035">
        <ele>913</ele>
        <time>2010-01-01T00:15:43Z</time>
      </trkpt>
      <trkpt lat="47.19633" lon="6.8403">
        <ele>913</ele>
        <time>2010-01-01T00:15:57Z</time>
      </trkpt>
      <trkpt lat="47.19587" lon="6.83976">
        <ele>908</ele>
        <time>2010-01-01T00:16:21Z</time>
      </trkpt>
      <trkpt lat="47.19563" lon="6.83963">
        <ele>906</ele>
        <time>2010-01-01T00:16:31Z</time>
      </trkpt>
      <trkpt lat="47.19533" lon="6.83954">
        <ele>909</ele>
        <time>2010-01-01T00:16:43Z</time>
      </trkpt>
      <trkpt lat="47.19504" lon="6.83957">
        <ele>915</ele>
        <time>2010-01-01T00:16:55Z</time>
      </trkpt>
      <trkpt lat="47.19439" lon="6.84006">
        <ele>923</ele>
        <time>2010-01-01T00:17:24Z</time>
      </trkpt>
      <trkpt lat="47.1937" lon="6.84033">
        <ele>922</ele>
        <time>2010-01-01T00:17:53Z</time>
      </trkpt>
      <trkpt lat="47.19321" lon="6.84043">
        <ele>925</ele>
        <time>2010-01-01T00:18:13Z</time>
      </trkpt>
      <trkpt lat="47.19243" lon="6.84024">
        <ele>925</ele>
        <time>2010-01-01T00:18:44Z</time>
      </trkpt>
      <trkpt lat="47.19194" lon="6.84028">
        <ele>925</ele>
        <time>2010-01-01T00:19:04Z</time>
      </trkpt>
      <trkpt lat="47.19176" lon="6.84051">
        <ele>925</ele>
        <time>2010-01-01T00:19:13Z</time>
      </trkpt>
      <trkpt lat="47.19173" lon="6.84067">
        <ele>925</ele>
        <time>2010-01-01T00:19:18Z</time>
      </trkpt>
      <trkpt lat="47.19165" lon="6.84095">
        <ele>926</ele>
        <time>2010-01-01T00:19:26Z</time>
      </trkpt>
      <trkpt lat="47.19143" lon="6.84126">
        <ele>926</ele>
        <time>2010-01-01T00:19:38Z</time>
      </trkpt>
      <trkpt lat="47.18901" lon="6.84203">
        <ele>928</ele>
        <time>2010-01-01T00:21:18Z</time>
      </trkpt>
      <trkpt lat="47.1867" lon="6.8427">
        <ele>937</ele>
        <time>2010-01-01T00:22:52Z</time>
      </trkpt>
      <trkpt lat="47.18571" lon="6.843">
        <ele>955</ele>
        <time>2010-01-01T00:23:32Z</time>
      </trkpt>
      <trkpt lat="47.18541" lon="6.84369">
        <ele>960</ele>
        <time>2010-01-01T00:23:55Z</time>
      </trkpt>
      <trkpt lat="47.18557" lon="6.84442">
        <ele>962</ele>
        <time>2010-01-01T00:24:15Z</time>
      </trkpt>
      <trkpt lat="47.18549" lon="6.84477">
        <ele>965</ele>
        <time>2010-01-01T00:24:25Z</time>
      </trkpt>
      <trkpt lat="47.18508" lon="6.8453">
        <ele>961</ele>
        <time>2010-01-01T00:24:47Z</time>
      </trkpt>
      <trkpt lat="47.18438" lon="6.84643">
        <ele>948</ele>
        <time>2010-01-01T00:25:29Z</time>
      </trkpt>
      <trkpt lat="47.18435" lon="6.84681">
        <ele>948</ele>
        <time>2010-01-01T00:25:39Z</time>
      </trkpt>
      <trkpt lat="47.18452" lon="6.84721">
        <ele>951</ele>
        <time>2010-01-01T00:25:52Z</time>
      </trkpt>
      <trkpt lat="47.18453" lon="6.84865">
        <ele>946</ele>
        <time>2010-01-01T00:26:31Z</time>
      </trkpt>
      <trkpt lat="47.18459" lon="6.84998">
        <ele>936</ele>
        <time>2010-01-01T00:27:08Z</time>
      </trkpt>
      <trkpt lat="47.18492" lon="6.85078">
        <ele>931</ele>
        <time>2010-01-01T00:27:33Z</time>
      </trkpt>
      <trkpt lat="47.18492" lon="6.85077">
        <ele>931</ele>
        <time>2010-01-01T00:27:33Z</time>
      </trkpt>
      <trkpt lat="47.18493" lon="6.8508">
        <ele>932</ele>
        <time>2010-01-01T00:27:34Z</time>
      </trkpt>
      <trkpt lat="47.18545" lon="6.85111">
        <ele>932</ele>
        <time>2010-01-01T00:27:57Z</time>
      </trkpt>
      <trkpt lat="47.18563" lon="6.85148">
        <ele>924</ele>
        <time>2010-01-01T00:28:09Z</time>
      </trkpt>
      <trkpt lat="47.18569" lon="6.85171">
        <ele>921</ele>
        <time>2010-01-01T00:28:16Z</time>
      </trkpt>
      <trkpt lat="47.18593" lon="6.8522">
        <ele>918</ele>
        <time>2010-01-01T00:28:32Z</time>
      </trkpt>
      <trkpt lat="47.18592" lon="6.85316">
        <ele>908</ele>
        <time>2010-01-01T00:28:58Z</time>
      </trkpt>
      <trkpt lat="47.18585" lon="6.85371">
        <ele>904</ele>
        <time>2010-01-01T00:29:14Z</time>
      </trkpt>
      <trkpt lat="47.18576" lon="6.85399">
        <ele>902</ele>
        <time>2010-01-01T00:29:22Z</time>
      </trkpt>
      <trkpt lat="47.18533" lon="6.85432">
        <ele>901</ele>
        <time>2010-01-01T00:29:41Z</time>
      </trkpt>
      <trkpt lat="47.18506" lon="6.85441">
        <ele>899</ele>
        <time>2010-01-01T00:29:52Z</time>
      </trkpt>
      <trkpt lat="47.18504" lon="6.85441">
        <ele>899</ele>
        <time>2010-01-01T00:29:53Z</time>
      </trkpt>
      <trkpt lat="47.18481" lon="6.85418">
        <ele>895</ele>
        <time>2010-01-01T00:30:04Z</time>
      </trkpt>
      <trkpt lat="47.18441" lon="6.85363">
        <ele>888</ele>
        <time>2010-01-01T00:30:26Z</time>
      </trkpt>
      <trkpt lat="47.1841" lon="6.85312">
        <ele>875</ele>
        <time>2010-01-01T00:30:45Z</time>
      </trkpt>
      <trkpt lat="47.18383" lon="6.85256">
        <ele>875</ele>
        <time>2010-01-01T00:31:04Z</time>
      </trkpt>
      <trkpt lat="47.18355" lon="6.85208">
        <ele>842</ele>
        <time>2010-01-01T00:31:21Z</time>
      </trkpt>
      <trkpt lat="47.18352" lon="6.85245">
        <ele>848</ele>
        <time>2010-01-01T00:31:31Z</time>
      </trkpt>
      <trkpt lat="47.18356" lon="6.85294">
        <ele>849</ele>
        <time>2010-01-01T00:31:44Z</time>
      </trkpt>
      <trkpt lat="47.18375" lon="6.85407">
        <ele>850</ele>
        <time>2010-01-01T00:32:16Z</time>
      </trkpt>
      <trkpt lat="47.18383" lon="6.85487">
        <ele>841</ele>
        <time>2010-01-01T00:32:38Z</time>
      </trkpt>
      <trkpt lat="47.18378" lon="6.85568">
        <ele>825</ele>
        <time>2010-01-01T00:33:00Z</time>
      </trkpt>
      <trkpt lat="47.18368" lon="6.85639">
        <ele>813</ele>
        <time>2010-01-01T00:33:20Z</time>
      </trkpt>
      <trkpt lat="47.18355" lon="6.85734">
        <ele>798</ele>
        <time>2010-01-01T00:33:46Z</time>
      </trkpt>
      <trkpt lat="47.1832" lon="6.85731">
        <ele>785</ele>
        <time>2010-01-01T00:34:00Z</time>
      </trkpt>
      <trkpt lat="47.18295" lon="6.85743">
        <ele>776</ele>
        <time>2010-01-01T00:34:11Z</time>
      </trkpt>
      <trkpt lat="47.18287" lon="6.85782">
        <ele>771</ele>
        <time>2010-01-01T00:34:22Z</time>
      </trkpt>
      <trkpt lat="47.18279" lon="6.85835">
        <ele>767</ele>
        <time>2010-01-01T00:34:37Z</time>
      </trkpt>
      <trkpt lat="47.18264" lon="6.8581">
        <ele>764</ele>
        <time>2010-01-01T00:34:46Z</time>
      </trkpt>
      <trkpt lat="47.18241" lon="6.85707">
        <ele>759</ele>
        <time>2010-01-01T00:35:15Z</time>
      </trkpt>
      <trkpt lat="47.18233" lon="6.85635">
        <ele>750</ele>
        <time>2010-01-01T00:35:35Z</time>
      </trkpt>
      <trkpt lat="47.18223" lon="6.85589">
        <ele>745</ele>
        <time>2010-01-01T00:35:48Z</time>
      </trkpt>
      <trkpt lat="47.18206" lon="6.85549">
        <ele>737</ele>
        <time>2010-01-01T00:36:01Z</time>
      </trkpt>
      <trkpt lat="47.18216" lon="6.85602">
        <ele>738</ele>
        <time>2010-01-01T00:36:16Z</time>
      </trkpt>
      <trkpt lat="47.18215" lon="6.85769">
        <ele>739</ele>
        <time>2010-01-01T00:37:01Z</time>
      </trkpt>
      <trkpt lat="47.18217" lon="6.85851">
        <ele>740</ele>
        <time>2010-01-01T00:37:24Z</time>
      </trkpt>
      <trkpt lat="47.18222" lon="6.8593">
        <ele>737</ele>
        <time>2010-01-01T00:37:45Z</time>
      </trkpt>
      <trkpt lat="47.1824" lon="6.85992">
        <ele>733</ele>
        <time>2010-01-01T00:38:04Z</time>
      </trkpt>
      <trkpt lat="47.18257" lon="6.8603">
        <ele>732</ele>
        <time>2010-01-01T00:38:16Z</time>
      </trkpt>
      <trkpt lat="47.18264" lon="6.861">
        <ele>720</ele>
        <time>2010-01-01T00:38:35Z</time>
      </trkpt>
      <trkpt lat="47.18292" lon="6.86163">
        <ele>722</ele>
        <time>2010-01-01T00:38:56Z</time>
      </trkpt>
      <trkpt lat="47.18334" lon="6.86191">
        <ele>726</ele>
        <time>2010-01-01T00:39:14Z</time>
      </trkpt>
      <trkpt lat="47.1838" lon="6.86218">
        <ele>733</ele>
        <time>2010-01-01T00:39:34Z</time>
      </trkpt>
      <trkpt lat="47.18423" lon="6.86246">
        <ele>730</ele>
        <time>2010-01-01T00:39:53Z</time>
      </trkpt>
      <trkpt lat="47.18455" lon="6.86283">
        <ele>727</ele>
        <time>2010-01-01T00:40:09Z</time>
      </trkpt>
      <trkpt lat="47.18485" lon="6.86343">
        <ele>713</ele>
        <time>2010-01-01T00:40:29Z</time>
      </trkpt>
      <trkpt lat="47.18515" lon="6.86379">
        <ele>713</ele>
        <time>2010-01-01T00:40:45Z</time>
      </trkpt>
      <trkpt lat="47.18544" lon="6.86405">
        <ele>718</ele>
        <time>2010-01-01T00:40:59Z</time>
      </trkpt>
      <trkpt lat="47.1855" lon="6.8642">
        <ele>713</ele>
        <time>2010-01-01T00:41:03Z</time>
      </trkpt>
      <trkpt lat="47.18567" lon="6.8647">
        <ele>707</ele>
        <time>2010-01-01T00:41:19Z</time>
      </trkpt>
      <trkpt lat="47.18566" lon="6.8647">
        <ele>706</ele>
        <time>2010-01-01T00:41:19Z</time>
      </trkpt>
      <trkpt lat="47.18577" lon="6.86501">
        <ele>693</ele>
        <time>2010-01-01T00:41:28Z</time>
      </trkpt>
      <trkpt lat="47.18611" lon="6.86527">
        <ele>704</ele>
        <time>2010-01-01T00:41:44Z</time>
      </trkpt>
      <trkpt lat="47.18645" lon="6.86587">
        <ele>702</ele>
        <time>2010-01-01T00:42:05Z</time>
      </trkpt>
      <trkpt lat="47.18663" lon="6.86643">
        <ele>706</ele>
        <time>2010-01-01T00:42:22Z</time>
      </trkpt>
      <trkpt lat="47.18674" lon="6.86683">
        <ele>698</ele>
        <time>2010-01-01T00:42:34Z</time>
      </trkpt>
      <trkpt lat="47.18683" lon="6.86727">
        <ele>697</ele>
        <time>2010-01-01T00:42:46Z</time>
      </trkpt>
      <trkpt lat="47.18679" lon="6.86768">
        <ele>684</ele>
        <time>2010-01-01T00:42:57Z</time>
      </trkpt>
      <trkpt lat="47.18677" lon="6.86843">
        <ele>668</ele>
        <time>2010-01-01T00:43:18Z</time>
      </trkpt>
      <trkpt lat="47.18682" lon="6.86884">
        <ele>672</ele>
        <time>2010-01-01T00:43:29Z</time>
      </trkpt>
      <trkpt lat="47.1868" lon="6.86924">
        <ele>670</ele>
        <time>2010-01-01T00:43:40Z</time>
      </trkpt>
      <trkpt lat="47.18664" lon="6.8697">
        <ele>657</ele>
        <time>2010-01-01T00:43:54Z</time>
      </trkpt>
      <trkpt lat="47.18665" lon="6.87029">
        <ele>658</ele>
        <time>2010-01-01T00:44:10Z</time>
      </trkpt>
      <trkpt lat="47.18682" lon="6.87066">
        <ele>663</ele>
        <time>2010-01-01T00:44:22Z</time>
      </trkpt>
      <trkpt lat="47.18686" lon="6.87121">
        <ele>654</ele>
        <time>2010-01-01T00:44:37Z</time>
      </trkpt>
      <trkpt lat="47.18702" lon="6.8712">
        <ele>659</ele>
        <time>2010-01-01T00:44:44Z</time>
      </trkpt>
      <trkpt lat="47.18709" lon="6.87124">
        <ele>659</ele>
        <time>2010-01-01T00:44:47Z</time>
      </trkpt>
      <trkpt lat="47.18724" lon="6.87129">
        <ele>661</ele>
        <time>2010-01-01T00:44:53Z</time>
      </trkpt>
      <trkpt lat="47.18757" lon="6.87118">
        <ele>669</ele>
        <time>2010-01-01T00:45:06Z</time>
      </trkpt>
      <trkpt lat="47.18786" lon="6.87092">
        <ele>678</ele>
        <time>2010-01-01T00:45:20Z</time>
      </trkpt>
      <trkpt lat="47.18808" lon="6.87085">
        <ele>681</ele>
        <time>2010-01-01T00:45:29Z</time>
      </trkpt>
      <trkpt lat="47.18825" lon="6.87083">
        <ele>683</ele>
        <time>2010-01-01T00:45:36Z</time>
      </trkpt>
      <trkpt lat="47.18837" lon="6.87087">
        <ele>682</ele>
        <time>2010-01-01T00:45:41Z</time>
      </trkpt>
      <trkpt lat="47.18866" lon="6.87112">
        <ele>675</ele>
        <time>2010-01-01T00:45:54Z</time>
      </trkpt>
      <trkpt lat="47.1888" lon="6.8712">
        <ele>675</ele>
        <time>2010-01-01T00:46:00Z</time>
      </trkpt>
      <trkpt lat="47.18899" lon="6.87118">
        <ele>677</ele>
        <time>2010-01-01T00:46:08Z</time>
      </trkpt>
      <trkpt lat="47.18919" lon="6.87112">
        <ele>678</ele>
        <time>2010-01-01T00:46:16Z</time>
      </trkpt>
      <trkpt lat="47.18927" lon="6.87103">
        <ele>683</ele>
        <time>2010-01-01T00:46:20Z</time>
      </trkpt>
      <trkpt lat="47.18943" lon="6.87092">
        <ele>689</ele>
        <time>2010-01-01T00:46:27Z</time>
      </trkpt>
      <trkpt lat="47.18959" lon="6.87089">
        <ele>692</ele>
        <time>2010-01-01T00:46:34Z</time>
      </trkpt>
      <trkpt lat="47.18974" lon="6.87089">
        <ele>694</ele>
        <time>2010-01-01T00:46:40Z</time>
      </trkpt>
      <trkpt lat="47.19015" lon="6.87096">
        <ele>695</ele>
        <time>2010-01-01T00:46:56Z</time>
      </trkpt>
      <trkpt lat="47.19061" lon="6.87112">
        <ele>695</ele>
        <time>2010-01-01T00:47:15Z</time>
      </trkpt>
      <trkpt lat="47.19087" lon="6.87117">
        <ele>698</ele>
        <time>2010-01-01T00:47:26Z</time>
      </trkpt>
      <trkpt lat="47.19107" lon="6.87118">
        <ele>703</ele>
        <time>2010-01-01T00:47:34Z</time>
      </trkpt>
      <trkpt lat="47.19128" lon="6.87115">
        <ele>708</ele>
        <time>2010-01-01T00:47:42Z</time>
      </trkpt>
      <trkpt lat="47.19145" lon="6.87116">
        <ele>710</ele>
        <time>2010-01-01T00:47:49Z</time>
      </trkpt>
      <trkpt lat="47.19161" lon="6.87121">
        <ele>711</ele>
        <time>2010-01-01T00:47:55Z</time>
      </trkpt>
      <trkpt lat="47.19187" lon="6.87146">
        <ele>705</ele>
        <time>2010-01-01T00:48:08Z</time>
      </trkpt>
      <trkpt lat="47.19206" lon="6.87159">
        <ele>704</ele>
        <time>2010-01-01T00:48:16Z</time>
      </trkpt>
      <trkpt lat="47.19215" lon="6.87163">
        <ele>704</ele>
        <time>2010-01-01T00:48:20Z</time>
      </trkpt>
      <trkpt lat="47.19246" lon="6.87167">
        <ele>709</ele>
        <time>2010-01-01T00:48:32Z</time>
      </trkpt>
      <trkpt lat="47.1927" lon="6.87175">
        <ele>711</ele>
        <time>2010-01-01T00:48:42Z</time>
      </trkpt>
      <trkpt lat="47.1931" lon="6.87204">
        <ele>708</ele>
        <time>2010-01-01T00:49:00Z</time>
      </trkpt>
      <trkpt lat="47.19349" lon="6.87213">
        <ele>712</ele>
        <time>2010-01-01T00:49:16Z</time>
      </trkpt>
      <trkpt lat="47.19364" lon="6.87209">
        <ele>715</ele>
        <time>2010-01-01T00:49:22Z</time>
      </trkpt>
      <trkpt lat="47.19378" lon="6.872">
        <ele>719</ele>
        <time>2010-01-01T00:49:28Z</time>
      </trkpt>
      <trkpt lat="47.19396" lon="6.87196">
        <ele>720</ele>
        <time>2010-01-01T00:49:35Z</time>
      </trkpt>
      <trkpt lat="47.19416" lon="6.87203">
        <ele>716</ele>
        <time>2010-01-01T00:49:44Z</time>
      </trkpt>
      <trkpt lat="47.19437" lon="6.87223">
        <ele>714</ele>
        <time>2010-01-01T00:49:54Z</time>
      </trkpt>
      <trkpt lat="47.19484" lon="6.8725">
        <ele>715</ele>
        <time>2010-01-01T00:50:14Z</time>
      </trkpt>
      <trkpt lat="47.19483" lon="6.8725">
        <ele>715</ele>
        <time>2010-01-01T00:50:14Z</time>
      </trkpt>
      <trkpt lat="47.19499" lon="6.87264">
        <ele>713</ele>
        <time>2010-01-01T00:50:22Z</time>
      </trkpt>
      <trkpt lat="47.19516" lon="6.87291">
        <ele>708</ele>
        <time>2010-01-01T00:50:32Z</time>
      </trkpt>
      <trkpt lat="47.19524" lon="6.87291">
        <ele>711</ele>
        <time>2010-01-01T00:50:35Z</time>
      </trkpt>
      <trkpt lat="47.19525" lon="6.87286">
        <ele>712</ele>
        <time>2010-01-01T00:50:36Z</time>
      </trkpt>
      <trkpt lat="47.19519" lon="6.87276">
        <ele>714</ele>
        <time>2010-01-01T00:50:40Z</time>
      </trkpt>
      <trkpt lat="47.19513" lon="6.8726">
        <ele>719</ele>
        <time>2010-01-01T00:50:45Z</time>
      </trkpt>
      <trkpt lat="47.19515" lon="6.87253">
        <ele>723</ele>
        <time>2010-01-01T00:50:47Z</time>
      </trkpt>
      <trkpt lat="47.19539" lon="6.87255">
        <ele>730</ele>
        <time>2010-01-01T00:50:57Z</time>
      </trkpt>
      <trkpt lat="47.19617" lon="6.87284">
        <ele>748</ele>
        <time>2010-01-01T00:51:29Z</time>
      </trkpt>
      <trkpt lat="47.19646" lon="6.87291">
        <ele>755</ele>
        <time>2010-01-01T00:51:41Z</time>
      </trkpt>
      <trkpt lat="47.19672" lon="6.87307">
        <ele>754</ele>
        <time>2010-01-01T00:51:52Z</time>
      </trkpt>
      <trkpt lat="47.19696" lon="6.87318">
        <ele>757</ele>
        <time>2010-01-01T00:52:02Z</time>
      </trkpt>
      <trkpt lat="47.19739" lon="6.87327">
        <ele>763</ele>
        <time>2010-01-01T00:52:19Z</time>
      </trkpt>
      <trkpt lat="47.19799" lon="6.87352">
        <ele>771</ele>
        <time>2010-01-01T00:52:44Z</time>
      </trkpt>
      <trkpt lat="47.19798" lon="6.87352">
        <ele>770</ele>
        <time>2010-01-01T00:52:45Z</time>
      </trkpt>
      <trkpt lat="47.19794" lon="6.87319">
        <ele>774</ele>
        <time>2010-01-01T00:52:54Z</time>
      </trkpt>
      <trkpt lat="47.19767" lon="6.87276">
        <ele>776</ele>
        <time>2010-01-01T00:53:10Z</time>
      </trkpt>
      <trkpt lat="47.19776" lon="6.87274">
        <ele>777</ele>
        <time>2010-01-01T00:53:13Z</time>
      </trkpt>
      <trkpt lat="47.19811" lon="6.87275">
        <ele>786</ele>
        <time>2010-01-01T00:53:27Z</time>
      </trkpt>
      <trkpt lat="47.19873" lon="6.8729">
        <ele>800</ele>
        <time>2010-01-01T00:53:53Z</time>
      </trkpt>
      <trkpt lat="47.19886" lon="6.87288">
        <ele>802</ele>
        <time>2010-01-01T00:53:58Z</time>
      </trkpt>
      <trkpt lat="47.19896" lon="6.87275">
        <ele>803</ele>
        <time>2010-01-01T00:54:03Z</time>
      </trkpt>
      <trkpt lat="47.19913" lon="6.87238">
        <ele>809</ele>
        <time>2010-01-01T00:54:15Z</time>
      </trkpt>
      <trkpt lat="47.19926" lon="6.87228">
        <ele>809</ele>
        <time>2010-01-01T00:54:21Z</time>
      </trkpt>
      <trkpt lat="47.19937" lon="6.87225">
        <ele>808</ele>
        <time>2010-01-01T00:54:26Z</time>
      </trkpt>
      <trkpt lat="47.19971" lon="6.87229">
        <ele>803</ele>
        <time>2010-01-01T00:54:39Z</time>
      </trkpt>
      <trkpt lat="47.19988" lon="6.87239">
        <ele>803</ele>
        <time>2010-01-01T00:54:47Z</time>
      </trkpt>
      <trkpt lat="47.20001" lon="6.87254">
        <ele>802</ele>
        <time>2010-01-01T00:54:53Z</time>
      </trkpt>
      <trkpt lat="47.2002" lon="6.87269">
        <ele>801</ele>
        <time>2010-01-01T00:55:02Z</time>
      </trkpt>
      <trkpt lat="47.20051" lon="6.87316">
        <ele>791</ele>
        <time>2010-01-01T00:55:20Z</time>
      </trkpt>
      <trkpt lat="47.20067" lon="6.8733">
        <ele>787</ele>
        <time>2010-01-01T00:55:27Z</time>
      </trkpt>
      <trkpt lat="47.20071" lon="6.87342">
        <ele>783</ele>
        <time>2010-01-01T00:55:31Z</time>
      </trkpt>
      <trkpt lat="47.20071" lon="6.87352">
        <ele>780</ele>
        <time>2010-01-01T00:55:33Z</time>
      </trkpt>
      <trkpt lat="47.20065" lon="6.87375">
        <ele>775</ele>
        <time>2010-01-01T00:55:40Z</time>
      </trkpt>
      <trkpt lat="47.20069" lon="6.87385">
        <ele>772</ele>
        <time>2010-01-01T00:55:43Z</time>
      </trkpt>
      <trkpt lat="47.20075" lon="6.87395">
        <ele>769</ele>
        <time>2010-01-01T00:55:47Z</time>
      </trkpt>
      <trkpt lat="47.20093" lon="6.87413">
        <ele>765</ele>
        <time>2010-01-01T00:55:56Z</time>
      </trkpt>
      <trkpt lat="47.20111" lon="6.87422">
        <ele>764</ele>
        <time>2010-01-01T00:56:03Z</time>
      </trkpt>
      <trkpt lat="47.20113" lon="6.87428">
        <ele>763</ele>
        <time>2010-01-01T00:56:05Z</time>
      </trkpt>
      <trkpt lat="47.20112" lon="6.87451">
        <ele>758</ele>
        <time>2010-01-01T00:56:11Z</time>
      </trkpt>
      <trkpt lat="47.20114" lon="6.87461">
        <ele>756</ele>
        <time>2010-01-01T00:56:14Z</time>
      </trkpt>
      <trkpt lat="47.20134" lon="6.87468">
        <ele>753</ele>
        <time>2010-01-01T00:56:22Z</time>
      </trkpt>
      <trkpt lat="47.20141" lon="6.87464">
        <ele>753</ele>
        <time>2010-01-01T00:56:25Z</time>
      </trkpt>
      <trkpt lat="47.20145" lon="6.87466">
        <ele>752</ele>
        <time>2010-01-01T00:56:27Z</time>
      </trkpt>
      <trkpt lat="47.20144" lon="6.87483">
        <ele>749</ele>
        <time>2010-01-01T00:56:32Z</time>
      </trkpt>
      <trkpt lat="47.20142" lon="6.87493">
        <ele>747</ele>
        <time>2010-01-01T00:56:35Z</time>
      </trkpt>
      <trkpt lat="47.20134" lon="6.87506">
        <ele>744</ele>
        <time>2010-01-01T00:56:39Z</time>
      </trkpt>
      <trkpt lat="47.20089" lon="6.87551">
        <ele>732</ele>
        <time>2010-01-01T00:57:01Z</time>
      </trkpt>
      <trkpt lat="47.2007" lon="6.87557">
        <ele>726</ele>
        <time>2010-01-01T00:57:09Z</time>
      </trkpt>
      <trkpt lat="47.20052" lon="6.87557">
        <ele>722</ele>
        <time>2010-01-01T00:57:16Z</time>
      </trkpt>
      <trkpt lat="47.20044" lon="6.87563">
        <ele>719</ele>
        <time>2010-01-01T00:57:20Z</time>
      </trkpt>
      <trkpt lat="47.20043" lon="6.87571">
        <ele>718</ele>
        <time>2010-01-01T00:57:22Z</time>
      </trkpt>
      <trkpt lat="47.2005" lon="6.87586">
        <ele>716</ele>
        <time>2010-01-01T00:57:27Z</time>
      </trkpt>
      <trkpt lat="47.20049" lon="6.87586">
        <ele>716</ele>
        <time>2010-01-01T00:57:27Z</time>
      </trkpt>
      <trkpt lat="47.20054" lon="6.87593">
        <ele>716</ele>
        <time>2010-01-01T00:57:30Z</time>
      </trkpt>
      <trkpt lat="47.20064" lon="6.87601">
        <ele>716</ele>
        <time>2010-01-01T00:57:35Z</time>
      </trkpt>
      <trkpt lat="47.20079" lon="6.87605">
        <ele>716</ele>
        <time>2010-01-01T00:57:41Z</time>
      </trkpt>
      <trkpt lat="47.20111" lon="6.87602">
        <ele>717</ele>
        <time>2010-01-01T00:57:54Z</time>
      </trkpt>
      <trkpt lat="47.20127" lon="6.87605">
        <ele>714</ele>
        <time>2010-01-01T00:58:00Z</time>
      </trkpt>
      <trkpt lat="47.20143" lon="6.87613">
        <ele>710</ele>
        <time>2010-01-01T00:58:07Z</time>
      </trkpt>
      <trkpt lat="47.20153" lon="6.87626">
        <ele>708</ele>
        <time>2010-01-01T00:58:12Z</time>
      </trkpt>
      <trkpt lat="47.20155" lon="6.87647">
        <ele>704</ele>
        <time>2010-01-01T00:58:18Z</time>
      </trkpt>
      <trkpt lat="47.2015" lon="6.87718">
        <ele>689</ele>
        <time>2010-01-01T00:58:37Z</time>
      </trkpt>
      <trkpt lat="47.20147" lon="6.87736">
        <ele>685</ele>
        <time>2010-01-01T00:58:42Z</time>
      </trkpt>
      <trkpt lat="47.20164" lon="6.87771">
        <ele>683</ele>
        <time>2010-01-01T00:58:54Z</time>
      </trkpt>
      <trkpt lat="47.20179" lon="6.87787">
        <ele>682</ele>
        <time>2010-01-01T00:59:01Z</time>
      </trkpt>
      <trkpt lat="47.20204" lon="6.87806">
        <ele>684</ele>
        <time>2010-01-01T00:59:13Z</time>
      </trkpt>
      <trkpt lat="47.20226" lon="6.8783">
        <ele>681</ele>
        <time>2010-01-01T00:59:24Z</time>
      </trkpt>
      <trkpt lat="47.20242" lon="6.8785">
        <ele>677</ele>
        <time>2010-01-01T00:59:32Z</time>
      </trkpt>
      <trkpt lat="47.20254" lon="6.87861">
        <ele>674</ele>
        <time>2010-01-01T00:59:38Z</time>
      </trkpt>
      <trkpt lat="47.2027" lon="6.87863">
        <ele>676</ele>
        <time>2010-01-01T00:59:44Z</time>
      </trkpt>
      <trkpt lat="47.20292" lon="6.8787">
        <ele>677</ele>
        <time>2010-01-01T00:59:53Z</time>
      </trkpt>
      <trkpt lat="47.20304" lon="6.87888">
        <ele>673</ele>
        <time>2010-01-01T01:00:00Z</time>
      </trkpt>
      <trkpt lat="47.20307" lon="6.87922">
        <ele>669</ele>
        <time>2010-01-01T01:00:09Z</time>
      </trkpt>
      <trkpt lat="47.20307" lon="6.87951">
        <ele>668</ele>
        <time>2010-01-01T01:00:17Z</time>
      </trkpt>
      <trkpt lat="47.203" lon="6.87981">
        <ele>667</ele>
        <time>2010-01-01T01:00:26Z</time>
      </trkpt>
      <trkpt lat="47.2028" lon="6.88001">
        <ele>659</ele>
        <time>2010-01-01T01:00:36Z</time>
      </trkpt>
      <trkpt lat="47.20266" lon="6.88018">
        <ele>651</ele>
        <time>2010-01-01T01:00:43Z</time>
      </trkpt>
      <trkpt lat="47.20261" lon="6.8804">
        <ele>647</ele>
        <time>2010-01-01T01:00:49Z</time>
      </trkpt>
      <trkpt lat="47.20267" lon="6.88068">
        <ele>649</ele>
        <time>2010-01-01T01:00:57Z</time>
      </trkpt>
      <trkpt lat="47.20277" lon="6.88097">
        <ele>651</ele>
        <time>2010-01-01T01:01:06Z</time>
      </trkpt>
      <trkpt lat="47.2031" lon="6.88123">
        <ele>653</ele>
        <time>2010-01-01T01:01:21Z</time>
      </trkpt>
      <trkpt lat="47.20336" lon="6.88146">
        <ele>651</ele>
        <time>2010-01-01T01:01:33Z</time>
      </trkpt>
      <trkpt lat="47.20364" lon="6.88178">
        <ele>647</ele>
        <time>2010-01-01T01:01:47Z</time>
      </trkpt>
      <trkpt lat="47.20379" lon="6.88199">
        <ele>646</ele>
        <time>2010-01-01T01:01:56Z</time>
      </trkpt>
      <trkpt lat="47.20402" lon="6.88249">
        <ele>646</ele>
        <time>2010-01-01T01:02:12Z</time>
      </trkpt>
      <trkpt lat="47.2042" lon="6.8828">
        <ele>648</ele>
        <time>2010-01-01T01:02:23Z</time>
      </trkpt>
      <trkpt lat="47.20434" lon="6.88321">
        <ele>646</ele>
        <time>2010-01-01T01:02:36Z</time>
      </trkpt>
      <trkpt lat="47.20444" lon="6.88336">
        <ele>646</ele>
        <time>2010-01-01T01:02:41Z</time>
      </trkpt>
      <trkpt lat="47.20444" lon="6.88335">
        <ele>646</ele>
        <time>2010-01-01T01:02:42Z</time>
      </trkpt>
      <trkpt lat="47.2045" lon="6.88349">
        <ele>644</ele>
        <time>2010-01-01T01:02:46Z</time>
      </trkpt>
      <trkpt lat="47.2046" lon="6.88365">
        <ele>642</ele>
        <time>2010-01-01T01:02:52Z</time>
      </trkpt>
      <trkpt lat="47.20483" lon="6.88388">
        <ele>641</ele>
        <time>2010-01-01T01:03:03Z</time>
      </trkpt>
      <trkpt lat="47.20528" lon="6.88548">
        <ele>634</ele>
        <time>2010-01-01T01:03:50Z</time>
      </trkpt>
      <trkpt lat="47.20568" lon="6.88731">
        <ele>626</ele>
        <time>2010-01-01T01:04:42Z</time>
      </trkpt>
      <trkpt lat="47.20571" lon="6.88729">
        <ele>628</ele>
        <time>2010-01-01T01:04:44Z</time>
      </trkpt>
      <trkpt lat="47.20592" lon="6.88752">
        <ele>629</ele>
        <time>2010-01-01T01:04:54Z</time>
      </trkpt>
      <trkpt lat="47.20605" lon="6.88776">
        <ele>629</ele>
        <time>2010-01-01T01:05:03Z</time>
      </trkpt>
      <trkpt lat="47.20628" lon="6.88794">
        <ele>636</ele>
        <time>2010-01-01T01:05:13Z</time>
      </trkpt>
      <trkpt lat="47.20661" lon="6.88839">
        <ele>640</ele>
        <time>2010-01-01T01:05:31Z</time>
      </trkpt>
      <trkpt lat="47.20686" lon="6.88887">
        <ele>636</ele>
        <time>2010-01-01T01:05:48Z</time>
      </trkpt>
      <trkpt lat="47.20751" lon="6.8899">
        <ele>637</ele>
        <time>2010-01-01T01:06:26Z</time>
      </trkpt>
      <trkpt lat="47.20769" lon="6.89016">
        <ele>635</ele>
        <time>2010-01-01T01:06:36Z</time>
      </trkpt>
      <trkpt lat="47.2079" lon="6.89038">
        <ele>638</ele>
        <time>2010-01-01T01:06:46Z</time>
      </trkpt>
      <trkpt lat="47.20808" lon="6.89063">
        <ele>639</ele>
        <time>2010-01-01T01:06:56Z</time>
      </trkpt>
      <trkpt lat="47.20807" lon="6.89063">
        <ele>638</ele>
        <time>2010-01-01T01:06:56Z</time>
      </trkpt>
      <trkpt lat="47.20818" lon="6.89081">
        <ele>639</ele>
        <time>2010-01-01T01:07:03Z</time>
      </trkpt>
      <trkpt lat="47.20835" lon="6.89128">
        <ele>635</ele>
        <time>2010-01-01T01:07:18Z</time>
      </trkpt>
      <trkpt lat="47.20846" lon="6.8914">
        <ele>636</ele>
        <time>2010-01-01T01:07:23Z</time>
      </trkpt>
      <trkpt lat="47.20853" lon="6.89145">
        <ele>638</ele>
        <time>2010-01-01T01:07:26Z</time>
      </trkpt>
      <trkpt lat="47.20865" lon="6.89146">
        <ele>643</ele>
        <time>2010-01-01T01:07:31Z</time>
      </trkpt>
      <trkpt lat="47.20887" lon="6.89159">
        <ele>650</ele>
        <time>2010-01-01T01:07:40Z</time>
      </trkpt>
      <trkpt lat="47.20898" lon="6.89173">
        <ele>650</ele>
        <time>2010-01-01T01:07:46Z</time>
      </trkpt>
      <trkpt lat="47.209" lon="6.8919">
        <ele>645</ele>
        <time>2010-01-01T01:07:51Z</time>
      </trkpt>
      <trkpt lat="47.20901" lon="6.89214">
        <ele>640</ele>
        <time>2010-01-01T01:07:57Z</time>
      </trkpt>
      <trkpt lat="47.20898" lon="6.8924">
        <ele>633</ele>
        <time>2010-01-01T01:08:05Z</time>
      </trkpt>
      <trkpt lat="47.20901" lon="6.89265">
        <ele>630</ele>
        <time>2010-01-01T01:08:12Z</time>
      </trkpt>
      <trkpt lat="47.2091" lon="6.89313">
        <ele>628</ele>
        <time>2010-01-01T01:08:25Z</time>
      </trkpt>
      <trkpt lat="47.20926" lon="6.89361">
        <ele>623</ele>
        <time>2010-01-01T01:08:40Z</time>
      </trkpt>
      <trkpt lat="47.20947" lon="6.89413">
        <ele>627</ele>
        <time>2010-01-01T01:08:56Z</time>
      </trkpt>
      <trkpt lat="47.20984" lon="6.89462">
        <ele>635</ele>
        <time>2010-01-01T01:09:16Z</time>
      </trkpt>
      <trkpt lat="47.2099" lon="6.89481">
        <ele>632</ele>
        <time>2010-01-01T01:09:22Z</time>
      </trkpt>
      <trkpt lat="47.2099" lon="6.89525">
        <ele>614</ele>
        <time>2010-01-01T01:09:34Z</time>
      </trkpt>
      <trkpt lat="47.20995" lon="6.89539">
        <ele>612</ele>
        <time>2010-01-01T01:09:38Z</time>
      </trkpt>
      <trkpt lat="47.21027" lon="6.89613">
        <ele>609</ele>
        <time>2010-01-01T01:10:02Z</time>
      </trkpt>
      <trkpt lat="47.21052" lon="6.89658">
        <ele>612</ele>
        <time>2010-01-01T01:10:18Z</time>
      </trkpt>
      <trkpt lat="47.21089" lon="6.89707">
        <ele>611</ele>
        <time>2010-01-01T01:10:38Z</time>
      </trkpt>
      <trkpt lat="47.21125" lon="6.89748">
        <ele>613</ele>
        <time>2010-01-01T01:10:56Z</time>
      </trkpt>
      <trkpt lat="47.21149" lon="6.89781">
        <ele>616</ele>
        <time>2010-01-01T01:11:09Z</time>
      </trkpt>
      <trkpt lat="47.21171" lon="6.8982">
        <ele>610</ele>
        <time>2010-01-01T01:11:23Z</time>
      </trkpt>
      <trkpt lat="47.21214" lon="6.89866">
        <ele>614</ele>
        <time>2010-01-01T01:11:44Z</time>
      </trkpt>
      <trkpt lat="47.21244" lon="6.89921">
        <ele>614</ele>
        <time>2010-01-01T01:12:03Z</time>
      </trkpt>
      <trkpt lat="47.21257" lon="6.89958">
        <ele>610</ele>
        <time>2010-01-01T01:12:14Z</time>
      </trkpt>
      <trkpt lat="47.21284" lon="6.90047">
        <ele>593</ele>
        <time>2010-01-01T01:12:41Z</time>
      </trkpt>
      <trkpt lat="47.21304" lon="6.90074">
        <ele>595</ele>
        <time>2010-01-01T01:12:52Z</time>
      </trkpt>
      <trkpt lat="47.21355" lon="6.90154">
        <ele>604</ele>
        <time>2010-01-01T01:13:22Z</time>
      </trkpt>
      <trkpt lat="47.21369" lon="6.90192">
        <ele>598</ele>
        <time>2010-01-01T01:13:33Z</time>
      </trkpt>
      <trkpt lat="47.21367" lon="6.90215">
        <ele>591</ele>
        <time>2010-01-01T01:13:40Z</time>
      </trkpt>
      <trkpt lat="47.21368" lon="6.90238">
        <ele>586</ele>
        <time>2010-01-01T01:13:46Z</time>
      </trkpt>
      <trkpt lat="47.21376" lon="6.90279">
        <ele>581</ele>
        <time>2010-01-01T01:13:58Z</time>
      </trkpt>
      <trkpt lat="47.21398" lon="6.90379">
        <ele>576</ele>
        <time>2010-01-01T01:14:26Z</time>
      </trkpt>
      <trkpt lat="47.21409" lon="6.90414">
        <ele>574</ele>
        <time>2010-01-01T01:14:37Z</time>
      </trkpt>
      <trkpt lat="47.21424" lon="6.9045">
        <ele>574</ele>
        <time>2010-01-01T01:14:48Z</time>
      </trkpt>
      <trkpt lat="47.21445" lon="6.90497">
        <ele>570</ele>
        <time>2010-01-01T01:15:03Z</time>
      </trkpt>
      <trkpt lat="47.21445" lon="6.90496">
        <ele>570</ele>
        <time>2010-01-01T01:15:04Z</time>
      </trkpt>
      <trkpt lat="47.21447" lon="6.90502">
        <ele>569</ele>
        <time>2010-01-01T01:15:06Z</time>
      </trkpt>
      <trkpt lat="47.21498" lon="6.90571">
        <ele>561</ele>
        <time>2010-01-01T01:15:33Z</time>
      </trkpt>
      <trkpt lat="47.21533" lon="6.90597">
        <ele>559</ele>
        <time>2010-01-01T01:15:49Z</time>
      </trkpt>
      <trkpt lat="47.21584" lon="6.90628">
        <ele>557</ele>
        <time>2010-01-01T01:16:11Z</time>
      </trkpt>
      <trkpt lat="47.21648" lon="6.9068">
        <ele>563</ele>
        <time>2010-01-01T01:16:40Z</time>
      </trkpt>
      <trkpt lat="47.21748" lon="6.90753">
        <ele>575</ele>
        <time>2010-01-01T01:17:25Z</time>
      </trkpt>
      <trkpt lat="47.21782" lon="6.90795">
        <ele>572</ele>
        <time>2010-01-01T01:17:43Z</time>
      </trkpt>
      <trkpt lat="47.21818" lon="6.90858">
        <ele>569</ele>
        <time>2010-01-01T01:18:05Z</time>
      </trkpt>
      <trkpt lat="47.21841" lon="6.90918">
        <ele>569</ele>
        <time>2010-01-01T01:18:24Z</time>
      </trkpt>
      <trkpt lat="47.21863" lon="6.90981">
        <ele>566</ele>
        <time>2010-01-01T01:18:43Z</time>
      </trkpt>
      <trkpt lat="47.21872" lon="6.91038">
        <ele>554</ele>
        <time>2010-01-01T01:18:59Z</time>
      </trkpt>
      <trkpt lat="47.21885" lon="6.91105">
        <ele>553</ele>
        <time>2010-01-01T01:19:18Z</time>
      </trkpt>
      <trkpt lat="47.21929" lon="6.91242">
        <ele>561</ele>
        <time>2010-01-01T01:19:59Z</time>
      </trkpt>
      <trkpt lat="47.21946" lon="6.91284">
        <ele>564</ele>
        <time>2010-01-01T01:20:12Z</time>
      </trkpt>
      <trkpt lat="47.21958" lon="6.91335">
        <ele>565</ele>
        <time>2010-01-01T01:20:27Z</time>
      </trkpt>
      <trkpt lat="47.21969" lon="6.91408">
        <ele>558</ele>
        <time>2010-01-01T01:20:47Z</time>
      </trkpt>
      <trkpt lat="47.22003" lon="6.91546">
        <ele>555</ele>
        <time>2010-01-01T01:21:27Z</time>
      </trkpt>
      <trkpt lat="47.22022" lon="6.91595">
        <ele>555</ele>
        <time>2010-01-01T01:21:43Z</time>
      </trkpt>
      <trkpt lat="47.22039" lon="6.91622">
        <ele>559</ele>
        <time>2010-01-01T01:21:53Z</time>
      </trkpt>
      <trkpt lat="47.22056" lon="6.91642">
        <ele>562</ele>
        <time>2010-01-01T01:22:01Z</time>
      </trkpt>
      <trkpt lat="47.22069" lon="6.91669">
        <ele>559</ele>
        <time>2010-01-01T01:22:10Z</time>
      </trkpt>
      <trkpt lat="47.22099" lon="6.91789">
        <ele>557</ele>
        <time>2010-01-01T01:22:45Z</time>
      </trkpt>
      <trkpt lat="47.22125" lon="6.91876">
        <ele>555</ele>
        <time>2010-01-01T01:23:11Z</time>
      </trkpt>
      <trkpt lat="47.22155" lon="6.91963">
        <ele>561</ele>
        <time>2010-01-01T01:23:38Z</time>
      </trkpt>
      <trkpt lat="47.2218" lon="6.92046">
        <ele>558</ele>
        <time>2010-01-01T01:24:02Z</time>
      </trkpt>
      <trkpt lat="47.22211" lon="6.92111">
        <ele>559</ele>
        <time>2010-01-01T01:24:24Z</time>
      </trkpt>
      <trkpt lat="47.22241" lon="6.92165">
        <ele>560</ele>
        <time>2010-01-01T01:24:43Z</time>
      </trkpt>
      <trkpt lat="47.22308" lon="6.92246">
        <ele>565</ele>
        <time>2010-01-01T01:25:18Z</time>
      </trkpt>
      <trkpt lat="47.22332" lon="6.92267">
        <ele>569</ele>
        <time>2010-01-01T01:25:29Z</time>
      </trkpt>
      <trkpt lat="47.22331" lon="6.92267">
        <ele>568</ele>
        <time>2010-01-01T01:25:29Z</time>
      </trkpt>
      <trkpt lat="47.22351" lon="6.92284">
        <ele>573</ele>
        <time>2010-01-01T01:25:38Z</time>
      </trkpt>
      <trkpt lat="47.2235" lon="6.92287">
        <ele>572</ele>
        <time>2010-01-01T01:25:39Z</time>
      </trkpt>
      <trkpt lat="47.22356" lon="6.92302">
        <ele>570</ele>
        <time>2010-01-01T01:25:44Z</time>
      </trkpt>
      <trkpt lat="47.22368" lon="6.92317">
        <ele>570</ele>
        <time>2010-01-01T01:25:50Z</time>
      </trkpt>
      <trkpt lat="47.22388" lon="6.92334">
        <ele>574</ele>
        <time>2010-01-01T01:26:00Z</time>
      </trkpt>
      <trkpt lat="47.22427" lon="6.92383">
        <ele>566</ele>
        <time>2010-01-01T01:26:20Z</time>
      </trkpt>
      <trkpt lat="47.2243" lon="6.92396">
        <ele>562</ele>
        <time>2010-01-01T01:26:24Z</time>
      </trkpt>
      <trkpt lat="47.22429" lon="6.9242">
        <ele>557</ele>
        <time>2010-01-01T01:26:30Z</time>
      </trkpt>
      <trkpt lat="47.22422" lon="6.925">
        <ele>549</ele>
        <time>2010-01-01T01:26:52Z</time>
      </trkpt>
      <trkpt lat="47.22425" lon="6.92534">
        <ele>549</ele>
        <time>2010-01-01T01:27:02Z</time>
      </trkpt>
      <trkpt lat="47.22423" lon="6.92548">
        <ele>547</ele>
        <time>2010-01-01T01:27:05Z</time>
      </trkpt>
      <trkpt lat="47.22396" lon="6.92607">
        <ele>552</ele>
        <time>2010-01-01T01:27:25Z</time>
      </trkpt>
      <trkpt lat="47.22436" lon="6.92652">
        <ele>572</ele>
        <time>2010-01-01T01:27:45Z</time>
      </trkpt>
      <trkpt lat="47.22473" lon="6.92681">
        <ele>577</ele>
        <time>2010-01-01T01:28:02Z</time>
      </trkpt>
      <trkpt lat="47.22473" lon="6.9268">
        <ele>577</ele>
        <time>2010-01-01T01:28:02Z</time>
      </trkpt>
      <trkpt lat="47.22499" lon="6.92693">
        <ele>572</ele>
        <time>2010-01-01T01:28:13Z</time>
      </trkpt>
      <trkpt lat="47.22543" lon="6.92728">
        <ele>581</ele>
        <time>2010-01-01T01:28:33Z</time>
      </trkpt>
      <trkpt lat="47.22558" lon="6.92743">
        <ele>587</ele>
        <time>2010-01-01T01:28:40Z</time>
      </trkpt>
      <trkpt lat="47.22598" lon="6.92758">
        <ele>578</ele>
        <time>2010-01-01T01:28:57Z</time>
      </trkpt>
      <trkpt lat="47.22621" lon="6.92757">
        <ele>568</ele>
        <time>2010-01-01T01:29:06Z</time>
      </trkpt>
      <trkpt lat="47.22654" lon="6.92768">
        <ele>566</ele>
        <time>2010-01-01T01:29:20Z</time>
      </trkpt>
      <trkpt lat="47.22704" lon="6.92791">
        <ele>563</ele>
        <time>2010-01-01T01:29:41Z</time>
      </trkpt>
      <trkpt lat="47.22737" lon="6.92818">
        <ele>561</ele>
        <time>2010-01-01T01:29:56Z</time>
      </trkpt>
      <trkpt lat="47.22842" lon="6.92917">
        <ele>536</ele>
        <time>2010-01-01T01:30:46Z</time>
      </trkpt>
      <trkpt lat="47.22864" lon="6.92949">
        <ele>536</ele>
        <time>2010-01-01T01:30:58Z</time>
      </trkpt>
      <trkpt lat="47.22916" lon="6.92981">
        <ele>524</ele>
        <time>2010-01-01T01:31:20Z</time>
      </trkpt>
      <trkpt lat="47.22965" lon="6.93033">
        <ele>525</ele>
        <time>2010-01-01T01:31:45Z</time>
      </trkpt>
      <trkpt lat="47.22977" lon="6.93065">
        <ele>527</ele>
        <time>2010-01-01T01:31:55Z</time>
      </trkpt>
      <trkpt lat="47.23" lon="6.93113">
        <ele>526</ele>
        <time>2010-01-01T01:32:11Z</time>
      </trkpt>
      <trkpt lat="47.23027" lon="6.93197">
        <ele>525</ele>
        <time>2010-01-01T01:32:36Z</time>
      </trkpt>
      <trkpt lat="47.23049" lon="6.93287">
        <ele>535</ele>
        <time>2010-01-01T01:33:02Z</time>
      </trkpt>
      <trkpt lat="47.23052" lon="6.93346">
        <ele>540</ele>
        <time>2010-01-01T01:33:18Z</time>
      </trkpt>
      <trkpt lat="47.23058" lon="6.93428">
        <ele>535</ele>
        <time>2010-01-01T01:33:40Z</time>
      </trkpt>
      <trkpt lat="47.2306" lon="6.93513">
        <ele>537</ele>
        <time>2010-01-01T01:34:03Z</time>
      </trkpt>
      <trkpt lat="47.2306" lon="6.93512">
        <ele>537</ele>
        <time>2010-01-01T01:34:04Z</time>
      </trkpt>
      <trkpt lat="47.2306" lon="6.93523">
        <ele>537</ele>
        <time>2010-01-01T01:34:07Z</time>
      </trkpt>
      <trkpt lat="47.23054" lon="6.93576">
        <ele>536</ele>
        <time>2010-01-01T01:34:21Z</time>
      </trkpt>
      <trkpt lat="47.23048" lon="6.93788">
        <ele>535</ele>
        <time>2010-01-01T01:35:19Z</time>
      </trkpt>
      <trkpt lat="47.23058" lon="6.93825">
        <ele>525</ele>
        <time>2010-01-01T01:35:30Z</time>
      </trkpt>
      <trkpt lat="47.23073" lon="6.93943">
        <ele>533</ele>
        <time>2010-01-01T01:36:02Z</time>
      </trkpt>
      <trkpt lat="47.23085" lon="6.93991">
        <ele>533</ele>
        <time>2010-01-01T01:36:16Z</time>
      </trkpt>
      <trkpt lat="47.23105" lon="6.94044">
        <ele>534</ele>
        <time>2010-01-01T01:36:33Z</time>
      </trkpt>
      <trkpt lat="47.23126" lon="6.94067">
        <ele>533</ele>
        <time>2010-01-01T01:36:43Z</time>
      </trkpt>
      <trkpt lat="47.2317" lon="6.94094">
        <ele>525</ele>
        <time>2010-01-01T01:37:02Z</time>
      </trkpt>
      <trkpt lat="47.23255" lon="6.9418">
        <ele>523</ele>
        <time>2010-01-01T01:37:44Z</time>
      </trkpt>
      <trkpt lat="47.23309" lon="6.94224">
        <ele>528</ele>
        <time>2010-01-01T01:38:08Z</time>
      </trkpt>
      <trkpt lat="47.23343" lon="6.94231">
        <ele>525</ele>
        <time>2010-01-01T01:38:22Z</time>
      </trkpt>
      <trkpt lat="47.23404" lon="6.94259">
        <ele>523</ele>
        <time>2010-01-01T01:38:48Z</time>
      </trkpt>
      <trkpt lat="47.23454" lon="6.94293">
        <ele>518</ele>
        <time>2010-01-01T01:39:10Z</time>
      </trkpt>
      <trkpt lat="47.23487" lon="6.94297">
        <ele>515</ele>
        <time>2010-01-01T01:39:23Z</time>
      </trkpt>
      <trkpt lat="47.23507" lon="6.94311">
        <ele>520</ele>
        <time>2010-01-01T01:39:32Z</time>
      </trkpt>
      <trkpt lat="47.23533" lon="6.94315">
        <ele>526</ele>
        <time>2010-01-01T01:39:42Z</time>
      </trkpt>
      <trkpt lat="47.23583" lon="6.94311">
        <ele>527</ele>
        <time>2010-01-01T01:40:02Z</time>
      </trkpt>
      <trkpt lat="47.23626" lon="6.94325">
        <ele>528</ele>
        <time>2010-01-01T01:40:20Z</time>
      </trkpt>
      <trkpt lat="47.23648" lon="6.94317">
        <ele>522</ele>
        <time>2010-01-01T01:40:29Z</time>
      </trkpt>
      <trkpt lat="47.23687" lon="6.94322">
        <ele>523</ele>
        <time>2010-01-01T01:40:45Z</time>
      </trkpt>
      <trkpt lat="47.2371" lon="6.94329">
        <ele>525</ele>
        <time>2010-01-01T01:40:54Z</time>
      </trkpt>
      <trkpt lat="47.23738" lon="6.94353">
        <ele>531</ele>
        <time>2010-01-01T01:41:07Z</time>
      </trkpt>
      <trkpt lat="47.23763" lon="6.94366">
        <ele>531</ele>
        <time>2010-01-01T01:41:18Z</time>
      </trkpt>
      <trkpt lat="47.23801" lon="6.94451">
        <ele>548</ele>
        <time>2010-01-01T01:41:45Z</time>
      </trkpt>
      <trkpt lat="47.23833" lon="6.94562">
        <ele>537</ele>
        <time>2010-01-01T01:42:18Z</time>
      </trkpt>
      <trkpt lat="47.23843" lon="6.94585">
        <ele>538</ele>
        <time>2010-01-01T01:42:26Z</time>
      </trkpt>
      <trkpt lat="47.23856" lon="6.94665">
        <ele>552</ele>
        <time>2010-01-01T01:42:48Z</time>
      </trkpt>
      <trkpt lat="47.23886" lon="6.94747">
        <ele>539</ele>
        <time>2010-01-01T01:43:13Z</time>
      </trkpt>
      <trkpt lat="47.23935" lon="6.9483">
        <ele>528</ele>
        <time>2010-01-01T01:43:43Z</time>
      </trkpt>
      <trkpt lat="47.23943" lon="6.94867">
        <ele>533</ele>
        <time>2010-01-01T01:43:54Z</time>
      </trkpt>
      <trkpt lat="47.23981" lon="6.94928">
        <ele>526</ele>
        <time>2010-01-01T01:44:16Z</time>
      </trkpt>
      <trkpt lat="47.24007" lon="6.94948">
        <ele>520</ele>
        <time>2010-01-01T01:44:28Z</time>
      </trkpt>
      <trkpt lat="47.24035" lon="6.94992">
        <ele>528</ele>
        <time>2010-01-01T01:44:44Z</time>
      </trkpt>
      <trkpt lat="47.24069" lon="6.95023">
        <ele>520</ele>
        <time>2010-01-01T01:45:00Z</time>
      </trkpt>
      <trkpt lat="47.24113" lon="6.95074">
        <ele>517</ele>
        <time>2010-01-01T01:45:23Z</time>
      </trkpt>
      <trkpt lat="47.24152" lon="6.95142">
        <ele>520</ele>
        <time>2010-01-01T01:45:47Z</time>
      </trkpt>
      <trkpt lat="47.24174" lon="6.95209">
        <ele>519</ele>
        <time>2010-01-01T01:46:07Z</time>
      </trkpt>
      <trkpt lat="47.24175" lon="6.95245">
        <ele>522</ele>
        <time>2010-01-01T01:46:17Z</time>
      </trkpt>
      <trkpt lat="47.24173" lon="6.95254">
        <ele>524</ele>
        <time>2010-01-01T01:46:20Z</time>
      </trkpt>
      <trkpt lat="47.24199" lon="6.95307">
        <ele>522</ele>
        <time>2010-01-01T01:46:37Z</time>
      </trkpt>
      <trkpt lat="47.24219" lon="6.95397">
        <ele>530</ele>
        <time>2010-01-01T01:47:03Z</time>
      </trkpt>
      <trkpt lat="47.24233" lon="6.95448">
        <ele>535</ele>
        <time>2010-01-01T01:47:18Z</time>
      </trkpt>
      <trkpt lat="47.24234" lon="6.95466">
        <ele>537</ele>
        <time>2010-01-01T01:47:23Z</time>
      </trkpt>
      <trkpt lat="47.2425" lon="6.9552">
        <ele>533</ele>
        <time>2010-01-01T01:47:39Z</time>
      </trkpt>
      <trkpt lat="47.24253" lon="6.95524">
        <ele>532</ele>
        <time>2010-01-01T01:47:41Z</time>
      </trkpt>
      <trkpt lat="47.24253" lon="6.95523">
        <ele>532</ele>
        <time>2010-01-01T01:47:41Z</time>
      </trkpt>
      <trkpt lat="47.24267" lon="6.95542">
        <ele>529</ele>
        <time>2010-01-01T01:47:48Z</time>
      </trkpt>
      <trkpt lat="47.24287" lon="6.95583">
        <ele>528</ele>
        <time>2010-01-01T01:48:02Z</time>
      </trkpt>
      <trkpt lat="47.24315" lon="6.95607">
        <ele>520</ele>
        <time>2010-01-01T01:48:15Z</time>
      </trkpt>
      <trkpt lat="47.24338" lon="6.95621">
        <ele>523</ele>
        <time>2010-01-01T01:48:25Z</time>
      </trkpt>
      <trkpt lat="47.2437" lon="6.95628">
        <ele>532</ele>
        <time>2010-01-01T01:48:38Z</time>
      </trkpt>
      <trkpt lat="47.2439" lon="6.95623">
        <ele>534</ele>
        <time>2010-01-01T01:48:46Z</time>
      </trkpt>
      <trkpt lat="47.24437" lon="6.95588">
        <ele>530</ele>
        <time>2010-01-01T01:49:07Z</time>
      </trkpt>
      <trkpt lat="47.24461" lon="6.95553">
        <ele>528</ele>
        <time>2010-01-01T01:49:21Z</time>
      </trkpt>
      <trkpt lat="47.24474" lon="6.95526">
        <ele>523</ele>
        <time>2010-01-01T01:49:30Z</time>
      </trkpt>
      <trkpt lat="47.24475" lon="6.95498">
        <ele>518</ele>
        <time>2010-01-01T01:49:37Z</time>
      </trkpt>
      <trkpt lat="47.24484" lon="6.95479">
        <ele>516</ele>
        <time>2010-01-01T01:49:44Z</time>
      </trkpt>
      <trkpt lat="47.24527" lon="6.9545">
        <ele>524</ele>
        <time>2010-01-01T01:50:03Z</time>
      </trkpt>
      <trkpt lat="47.24608" lon="6.95352">
        <ele>524</ele>
        <time>2010-01-01T01:50:45Z</time>
      </trkpt>
      <trkpt lat="47.24642" lon="6.95333">
        <ele>527</ele>
        <time>2010-01-01T01:50:59Z</time>
      </trkpt>
      <trkpt lat="47.24715" lon="6.95279">
        <ele>529</ele>
        <time>2010-01-01T01:51:32Z</time>
      </trkpt>
      <trkpt lat="47.24752" lon="6.95259">
        <ele>536</ele>
        <time>2010-01-01T01:51:48Z</time>
      </trkpt>
      <trkpt lat="47.24766" lon="6.95244">
        <ele>534</ele>
        <time>2010-01-01T01:51:55Z</time>
      </trkpt>
      <trkpt lat="47.24799" lon="6.95197">
        <ele>529</ele>
        <time>2010-01-01T01:52:13Z</time>
      </trkpt>
      <trkpt lat="47.24813" lon="6.95164">
        <ele>526</ele>
        <time>2010-01-01T01:52:23Z</time>
      </trkpt>
      <trkpt lat="47.24872" lon="6.95099">
        <ele>522</ele>
        <time>2010-01-01T01:52:53Z</time>
      </trkpt>
      <trkpt lat="47.24893" lon="6.95048">
        <ele>513</ele>
        <time>2010-01-01T01:53:09Z</time>
      </trkpt>
      <trkpt lat="47.24896" lon="6.94992">
        <ele>505</ele>
        <time>2010-01-01T01:53:24Z</time>
      </trkpt>
      <trkpt lat="47.24906" lon="6.9493">
        <ele>505</ele>
        <time>2010-01-01T01:53:42Z</time>
      </trkpt>
      <trkpt lat="47.24915" lon="6.9491">
        <ele>505</ele>
        <time>2010-01-01T01:53:48Z</time>
      </trkpt>
      <trkpt lat="47.24925" lon="6.94894">
        <ele>505</ele>
        <time>2010-01-01T01:53:54Z</time>
      </trkpt>
      <trkpt lat="47.2493" lon="6.94881">
        <ele>505</ele>
        <time>2010-01-01T01:53:58Z</time>
      </trkpt>
      <trkpt lat="47.24948" lon="6.9486">
        <ele>503</ele>
        <time>2010-01-01T01:54:07Z</time>
      </trkpt>
      <trkpt lat="47.24967" lon="6.94856">
        <ele>506</ele>
        <time>2010-01-01T01:54:15Z</time>
      </trkpt>
      <trkpt lat="47.24974" lon="6.94846">
        <ele>507</ele>
        <time>2010-01-01T01:54:19Z</time>
      </trkpt>
      <trkpt lat="47.25057" lon="6.94767">
        <ele>516</ele>
        <time>2010-01-01T01:54:59Z</time>
      </trkpt>
      <trkpt lat="47.25076" lon="6.94754">
        <ele>514</ele>
        <time>2010-01-01T01:55:07Z</time>
      </trkpt>
      <trkpt lat="47.25111" lon="6.94761">
        <ele>514</ele>
        <time>2010-01-01T01:55:21Z</time>
      </trkpt>
      <trkpt lat="47.25132" lon="6.94778">
        <ele>519</ele>
        <time>2010-01-01T01:55:31Z</time>
      </trkpt>
      <trkpt lat="47.25154" lon="6.94808">
        <ele>528</ele>
        <time>2010-01-01T01:55:43Z</time>
      </trkpt>
      <trkpt lat="47.25168" lon="6.94804">
        <ele>530</ele>
        <time>2010-01-01T01:55:48Z</time>
      </trkpt>
      <trkpt lat="47.2518" lon="6.94789">
        <ele>527</ele>
        <time>2010-01-01T01:55:55Z</time>
      </trkpt>
      <trkpt lat="47.25234" lon="6.94816">
        <ele>533</ele>
        <time>2010-01-01T01:56:18Z</time>
      </trkpt>
      <trkpt lat="47.25253" lon="6.94816">
        <ele>532</ele>
        <time>2010-01-01T01:56:25Z</time>
      </trkpt>
      <trkpt lat="47.25266" lon="6.94818">
        <ele>531</ele>
        <time>2010-01-01T01:56:30Z</time>
      </trkpt>
      <trkpt lat="47.253" lon="6.94839">
        <ele>532</ele>
        <time>2010-01-01T01:56:45Z</time>
      </trkpt>
      <trkpt lat="47.25305" lon="6.9484">
        <ele>531</ele>
        <time>2010-01-01T01:56:47Z</time>
      </trkpt>
      <trkpt lat="47.25304" lon="6.9484">
        <ele>531</ele>
        <time>2010-01-01T01:56:48Z</time>
      </trkpt>
      <trkpt lat="47.25331" lon="6.94831">
        <ele>528</ele>
        <time>2010-01-01T01:56:59Z</time>
      </trkpt>
      <trkpt lat="47.25393" lon="6.94835">
        <ele>529</ele>
        <time>2010-01-01T01:57:23Z</time>
      </trkpt>
      <trkpt lat="47.25404" lon="6.94839">
        <ele>530</ele>
        <time>2010-01-01T01:57:28Z</time>
      </trkpt>
      <trkpt lat="47.25438" lon="6.9486">
        <ele>531</ele>
        <time>2010-01-01T01:57:43Z</time>
      </trkpt>
      <trkpt lat="47.25452" lon="6.94873">
        <ele>532</ele>
        <time>2010-01-01T01:57:49Z</time>
      </trkpt>
      <trkpt lat="47.2549" lon="6.94945">
        <ele>534</ele>
        <time>2010-01-01T01:58:14Z</time>
      </trkpt>
      <trkpt lat="47.25496" lon="6.94955">
        <ele>533</ele>
        <time>2010-01-01T01:58:18Z</time>
      </trkpt>
      <trkpt lat="47.25508" lon="6.94966">
        <ele>532</ele>
        <time>2010-01-01T01:58:23Z</time>
      </trkpt>
      <trkpt lat="47.25558" lon="6.94995">
        <ele>532</ele>
        <time>2010-01-01T01:58:45Z</time>
      </trkpt>
      <trkpt lat="47.25583" lon="6.94998">
        <ele>531</ele>
        <time>2010-01-01T01:58:55Z</time>
      </trkpt>
      <trkpt lat="47.25598" lon="6.95005">
        <ele>528</ele>
        <time>2010-01-01T01:59:01Z</time>
      </trkpt>
      <trkpt lat="47.25645" lon="6.95039">
        <ele>528</ele>
        <time>2010-01-01T01:59:22Z</time>
      </trkpt>
      <trkpt lat="47.25723" lon="6.95071">
        <ele>534</ele>
        <time>2010-01-01T01:59:55Z</time>
      </trkpt>
      <trkpt lat="47.25794" lon="6.95077">
        <ele>524</ele>
        <time>2010-01-01T02:00:23Z</time>
      </trkpt>
      <trkpt lat="47.26053" lon="6.95165">
        <ele>508</ele>
        <time>2010-01-01T02:02:10Z</time>
      </trkpt>
      <trkpt lat="47.26081" lon="6.95178">
        <ele>503</ele>
        <time>2010-01-01T02:02:21Z</time>
      </trkpt>
      <trkpt lat="47.26093" lon="6.95188">
        <ele>502</ele>
        <time>2010-01-01T02:02:27Z</time>
      </trkpt>
      <trkpt lat="47.26123" lon="6.95205">
        <ele>497</ele>
        <time>2010-01-01T02:02:40Z</time>
      </trkpt>
      <trkpt lat="47.26122" lon="6.95205">
        <ele>497</ele>
        <time>2010-01-01T02:02:40Z</time>
      </trkpt>
      <trkpt lat="47.26131" lon="6.95208">
        <ele>496</ele>
        <time>2010-01-01T02:02:44Z</time>
      </trkpt>
      <trkpt lat="47.26139" lon="6.95206">
        <ele>495</ele>
        <time>2010-01-01T02:02:47Z</time>
      </trkpt>
      <trkpt lat="47.26156" lon="6.95188">
        <ele>494</ele>
        <time>2010-01-01T02:02:55Z</time>
      </trkpt>
      <trkpt lat="47.26161" lon="6.9517">
        <ele>494</ele>
        <time>2010-01-01T02:03:01Z</time>
      </trkpt>
      <trkpt lat="47.26167" lon="6.95104">
        <ele>494</ele>
        <time>2010-01-01T02:03:19Z</time>
      </trkpt>
      <trkpt lat="47.26172" lon="6.95019">
        <ele>499</ele>
        <time>2010-01-01T02:03:42Z</time>
      </trkpt>
      <trkpt lat="47.26167" lon="6.95003">
        <ele>501</ele>
        <time>2010-01-01T02:03:47Z</time>
      </trkpt>
      <trkpt lat="47.26179" lon="6.94989">
        <ele>502</ele>
        <time>2010-01-01T02:03:53Z</time>
      </trkpt>
      <trkpt lat="47.2621" lon="6.94993">
        <ele>500</ele>
        <time>2010-01-01T02:04:05Z</time>
      </trkpt>
      <trkpt lat="47.26336" lon="6.94976">
        <ele>496</ele>
        <time>2010-01-01T02:04:56Z</time>
      </trkpt>
      <trkpt lat="47.26361" lon="6.94979">
        <ele>496</ele>
        <time>2010-01-01T02:05:06Z</time>
      </trkpt>
      <trkpt lat="47.26436" lon="6.95016">
        <ele>495</ele>
        <time>2010-01-01T02:05:38Z</time>
      </trkpt>
      <trkpt lat="47.26458" lon="6.95018">
        <ele>495</ele>
        <time>2010-01-01T02:05:46Z</time>
      </trkpt>
      <trkpt lat="47.26477" lon="6.95009">
        <ele>496</ele>
        <time>2010-01-01T02:05:54Z</time>
      </trkpt>
      <trkpt lat="47.26528" lon="6.94955">
        <ele>503</ele>
        <time>2010-01-01T02:06:20Z</time>
      </trkpt>
      <trkpt lat="47.26556" lon="6.94941">
        <ele>508</ele>
        <time>2010-01-01T02:06:31Z</time>
      </trkpt>
      <trkpt lat="47.2661" lon="6.9494">
        <ele>506</ele>
        <time>2010-01-01T02:06:53Z</time>
      </trkpt>
      <trkpt lat="47.26654" lon="6.94955">
        <ele>500</ele>
        <time>2010-01-01T02:07:11Z</time>
      </trkpt>
      <trkpt lat="47.26709" lon="6.94952">
        <ele>506</ele>
        <time>2010-01-01T02:07:33Z</time>
      </trkpt>
      <trkpt lat="47.2673" lon="6.94972">
        <ele>504</ele>
        <time>2010-01-01T02:07:43Z</time>
      </trkpt>
      <trkpt lat="47.26755" lon="6.94988">
        <ele>507</ele>
        <time>2010-01-01T02:07:54Z</time>
      </trkpt>
      <trkpt lat="47.2678" lon="6.94987">
        <ele>511</ele>
        <time>2010-01-01T02:08:04Z</time>
      </trkpt>
      <trkpt lat="47.26822" lon="6.94998">
        <ele>519</ele>
        <time>2010-01-01T02:08:21Z</time>
      </trkpt>
      <trkpt lat="47.26822" lon="6.94997">
        <ele>519</ele>
        <time>2010-01-01T02:08:21Z</time>
      </trkpt>
      <trkpt lat="47.2692" lon="6.95066">
        <ele>516</ele>
        <time>2010-01-01T02:09:05Z</time>
      </trkpt>
      <trkpt lat="47.26946" lon="6.95076">
        <ele>516</ele>
        <time>2010-01-01T02:09:16Z</time>
      </trkpt>
      <trkpt lat="47.26964" lon="6.95078">
        <ele>515</ele>
        <time>2010-01-01T02:09:23Z</time>
      </trkpt>
      <trkpt lat="47.2698" lon="6.95074">
        <ele>513</ele>
        <time>2010-01-01T02:09:29Z</time>
      </trkpt>
      <trkpt lat="47.27002" lon="6.95061">
        <ele>508</ele>
        <time>2010-01-01T02:09:39Z</time>
      </trkpt>
      <trkpt lat="47.27022" lon="6.9504">
        <ele>505</ele>
        <time>2010-01-01T02:09:49Z</time>
      </trkpt>
      <trkpt lat="47.27049" lon="6.95003">
        <ele>503</ele>
        <time>2010-01-01T02:10:03Z</time>
      </trkpt>
      <trkpt lat="47.27056" lon="6.94997">
        <ele>503</ele>
        <time>2010-01-01T02:10:07Z</time>
      </trkpt>
      <trkpt lat="47.27067" lon="6.94996">
        <ele>503</ele>
        <time>2010-01-01T02:10:11Z</time>
      </trkpt>
      <trkpt lat="47.27105" lon="6.9497">
        <ele>504</ele>
        <time>2010-01-01T02:10:28Z</time>
      </trkpt>
      <trkpt lat="47.2712" lon="6.94963">
        <ele>506</ele>
        <time>2010-01-01T02:10:34Z</time>
      </trkpt>
      <trkpt lat="47.27144" lon="6.94965">
        <ele>507</ele>
        <time>2010-01-01T02:10:44Z</time>
      </trkpt>
      <trkpt lat="47.27154" lon="6.94959">
        <ele>508</ele>
        <time>2010-01-01T02:10:48Z</time>
      </trkpt>
      <trkpt lat="47.27165" lon="6.94943">
        <ele>512</ele>
        <time>2010-01-01T02:10:54Z</time>
      </trkpt>
      <trkpt lat="47.27173" lon="6.94926">
        <ele>515</ele>
        <time>2010-01-01T02:11:00Z</time>
      </trkpt>
      <trkpt lat="47.27178" lon="6.94919">
        <ele>517</ele>
        <time>2010-01-01T02:11:03Z</time>
      </trkpt>
      <trkpt lat="47.27218" lon="6.94902">
        <ele>519</ele>
        <time>2010-01-01T02:11:19Z</time>
      </trkpt>
      <trkpt lat="47.2725" lon="6.94871">
        <ele>520</ele>
        <time>2010-01-01T02:11:35Z</time>
      </trkpt>
      <trkpt lat="47.27315" lon="6.94836">
        <ele>516</ele>
        <time>2010-01-01T02:12:02Z</time>
      </trkpt>
      <trkpt lat="47.27393" lon="6.94812">
        <ele>513</ele>
        <time>2010-01-01T02:12:34Z</time>
      </trkpt>
      <trkpt lat="47.2749" lon="6.94774">
        <ele>511</ele>
        <time>2010-01-01T02:13:15Z</time>
      </trkpt>
      <trkpt lat="47.27611" lon="6.9468">
        <ele>515</ele>
        <time>2010-01-01T02:14:09Z</time>
      </trkpt>
      <trkpt lat="47.27802" lon="6.94505">
        <ele>522</ele>
        <time>2010-01-01T02:15:39Z</time>
      </trkpt>
      <trkpt lat="47.2782" lon="6.9449">
        <ele>517</ele>
        <time>2010-01-01T02:15:48Z</time>
      </trkpt>
      <trkpt lat="47.27874" lon="6.9445">
        <ele>516</ele>
        <time>2010-01-01T02:16:12Z</time>
      </trkpt>
      <trkpt lat="47.27895" lon="6.9443">
        <ele>524</ele>
        <time>2010-01-01T02:16:22Z</time>
      </trkpt>
      <trkpt lat="47.27925" lon="6.94431">
        <ele>521</ele>
        <time>2010-01-01T02:16:34Z</time>
      </trkpt>
      <trkpt lat="47.27948" lon="6.94437">
        <ele>516</ele>
        <time>2010-01-01T02:16:43Z</time>
      </trkpt>
      <trkpt lat="47.28011" lon="6.94469">
        <ele>507</ele>
        <time>2010-01-01T02:17:10Z</time>
      </trkpt>
      <trkpt lat="47.28105" lon="6.94449">
        <ele>501</ele>
        <time>2010-01-01T02:17:48Z</time>
      </trkpt>
      <trkpt lat="47.28189" lon="6.94349">
        <ele>515</ele>
        <time>2010-01-01T02:18:31Z</time>
      </trkpt>
      <trkpt lat="47.28279" lon="6.94193">
        <ele>516</ele>
        <time>2010-01-01T02:19:27Z</time>
      </trkpt>
      <trkpt lat="47.28388" lon="6.94069">
        <ele>511</ele>
        <time>2010-01-01T02:20:22Z</time>
      </trkpt>
      <trkpt lat="47.28493" lon="6.93972">
        <ele>513</ele>
        <time>2010-01-01T02:21:11Z</time>
      </trkpt>
      <trkpt lat="47.28526" lon="6.93954">
        <ele>516</ele>
        <time>2010-01-01T02:21:25Z</time>
      </trkpt>
      <trkpt lat="47.28526" lon="6.93955">
        <ele>516</ele>
        <time>2010-01-01T02:21:26Z</time>
      </trkpt>
      <trkpt lat="47.2855" lon="6.93948">
        <ele>516</ele>
        <time>2010-01-01T02:21:36Z</time>
      </trkpt>
      <trkpt lat="47.28596" lon="6.93957">
        <ele>504</ele>
        <time>2010-01-01T02:21:54Z</time>
      </trkpt>
      <trkpt lat="47.28641" lon="6.93987">
        <ele>505</ele>
        <time>2010-01-01T02:22:14Z</time>
      </trkpt>
      <trkpt lat="47.2868" lon="6.94023">
        <ele>510</ele>
        <time>2010-01-01T02:22:32Z</time>
      </trkpt>
      <trkpt lat="47.28718" lon="6.94082">
        <ele>510</ele>
        <time>2010-01-01T02:22:54Z</time>
      </trkpt>
      <trkpt lat="47.28869" lon="6.94339">
        <ele>499</ele>
        <time>2010-01-01T02:24:27Z</time>
      </trkpt>
      <trkpt lat="47.28912" lon="6.94385">
        <ele>502</ele>
        <time>2010-01-01T02:24:48Z</time>
      </trkpt>
      <trkpt lat="47.28955" lon="6.94448">
        <ele>504</ele>
        <time>2010-01-01T02:25:12Z</time>
      </trkpt>
      <trkpt lat="47.29084" lon="6.94604">
        <ele>521</ele>
        <time>2010-01-01T02:26:19Z</time>
      </trkpt>
      <trkpt lat="47.29115" lon="6.94669">
        <ele>507</ele>
        <time>2010-01-01T02:26:41Z</time>
      </trkpt>
      <trkpt lat="47.29214" lon="6.94887">
        <ele>499</ele>
        <time>2010-01-01T02:27:52Z</time>
      </trkpt>
      <trkpt lat="47.29227" lon="6.94922">
        <ele>500</ele>
        <time>2010-01-01T02:28:03Z</time>
      </trkpt>
      <trkpt lat="47.29239" lon="6.94992">
        <ele>500</ele>
        <time>2010-01-01T02:28:22Z</time>
      </trkpt>
      <trkpt lat="47.29261" lon="6.95041">
        <ele>497</ele>
        <time>2010-01-01T02:28:38Z</time>
      </trkpt>
      <trkpt lat="47.2926" lon="6.95041">
        <ele>496</ele>
        <time>2010-01-01T02:28:39Z</time>
      </trkpt>
      <trkpt lat="47.29262" lon="6.95045">
        <ele>496</ele>
        <time>2010-01-01T02:28:40Z</time>
      </trkpt>
      <trkpt lat="47.29266" lon="6.95069">
        <ele>493</ele>
        <time>2010-01-01T02:28:47Z</time>
      </trkpt>
      <trkpt lat="47.29271" lon="6.95065">
        <ele>495</ele>
        <time>2010-01-01T02:28:49Z</time>
      </trkpt>
      <trkpt lat="47.2929" lon="6.95085">
        <ele>497</ele>
        <time>2010-01-01T02:28:58Z</time>
      </trkpt>
      <trkpt lat="47.293" lon="6.95103">
        <ele>500</ele>
        <time>2010-01-01T02:29:05Z</time>
      </trkpt>
      <trkpt lat="47.29305" lon="6.95117">
        <ele>501</ele>
        <time>2010-01-01T02:29:09Z</time>
      </trkpt>
      <trkpt lat="47.29306" lon="6.95132">
        <ele>502</ele>
        <time>2010-01-01T02:29:13Z</time>
      </trkpt>
      <trkpt lat="47.29313" lon="6.95158">
        <ele>504</ele>
        <time>2010-01-01T02:29:21Z</time>
      </trkpt>
      <trkpt lat="47.29324" lon="6.95184">
        <ele>508</ele>
        <time>2010-01-01T02:29:29Z</time>
      </trkpt>
      <trkpt lat="47.2934" lon="6.95214">
        <ele>514</ele>
        <time>2010-01-01T02:29:39Z</time>
      </trkpt>
      <trkpt lat="47.29362" lon="6.95244">
        <ele>522</ele>
        <time>2010-01-01T02:29:51Z</time>
      </trkpt>
      <trkpt lat="47.2937" lon="6.95238">
        <ele>526</ele>
        <time>2010-01-01T02:29:55Z</time>
      </trkpt>
      <trkpt lat="47.29376" lon="6.95216">
        <ele>532</ele>
        <time>2010-01-01T02:30:01Z</time>
      </trkpt>
      <trkpt lat="47.29384" lon="6.95179">
        <ele>537</ele>
        <time>2010-01-01T02:30:12Z</time>
      </trkpt>
      <trkpt lat="47.29397" lon="6.95139">
        <ele>537</ele>
        <time>2010-01-01T02:30:24Z</time>
      </trkpt>
      <trkpt lat="47.29415" lon="6.95103">
        <ele>538</ele>
        <time>2010-01-01T02:30:36Z</time>
      </trkpt>
      <trkpt lat="47.29448" lon="6.95062">
        <ele>547</ele>
        <time>2010-01-01T02:30:53Z</time>
      </trkpt>
      <trkpt lat="47.29474" lon="6.95001">
        <ele>559</ele>
        <time>2010-01-01T02:31:13Z</time>
      </trkpt>
      <trkpt lat="47.29484" lon="6.94961">
        <ele>569</ele>
        <time>2010-01-01T02:31:24Z</time>
      </trkpt>
      <trkpt lat="47.29486" lon="6.94944">
        <ele>572</ele>
        <time>2010-01-01T02:31:29Z</time>
      </trkpt>
      <trkpt lat="47.29484" lon="6.94935">
        <ele>574</ele>
        <time>2010-01-01T02:31:32Z</time>
      </trkpt>
      <trkpt lat="47.2945" lon="6.94891">
        <ele>571</ele>
        <time>2010-01-01T02:31:50Z</time>
      </trkpt>
      <trkpt lat="47.29444" lon="6.94872">
        <ele>570</ele>
        <time>2010-01-01T02:31:55Z</time>
      </trkpt>
      <trkpt lat="47.29459" lon="6.94891">
        <ele>575</ele>
        <time>2010-01-01T02:32:03Z</time>
      </trkpt>
      <trkpt lat="47.2948" lon="6.94903">
        <ele>582</ele>
        <time>2010-01-01T02:32:12Z</time>
      </trkpt>
      <trkpt lat="47.2948" lon="6.94902">
        <ele>582</ele>
        <time>2010-01-01T02:32:13Z</time>
      </trkpt>
      <trkpt lat="47.29503" lon="6.94923">
        <ele>589</ele>
        <time>2010-01-01T02:32:24Z</time>
      </trkpt>
      <trkpt lat="47.29509" lon="6.94951">
        <ele>585</ele>
        <time>2010-01-01T02:32:31Z</time>
      </trkpt>
      <trkpt lat="47.29504" lon="6.95119">
        <ele>580</ele>
        <time>2010-01-01T02:33:17Z</time>
      </trkpt>
      <trkpt lat="47.29511" lon="6.95178">
        <ele>582</ele>
        <time>2010-01-01T02:33:33Z</time>
      </trkpt>
      <trkpt lat="47.29529" lon="6.95246">
        <ele>587</ele>
        <time>2010-01-01T02:33:53Z</time>
      </trkpt>
      <trkpt lat="47.29551" lon="6.95285">
        <ele>598</ele>
        <time>2010-01-01T02:34:07Z</time>
      </trkpt>
      <trkpt lat="47.29585" lon="6.95364">
        <ele>612</ele>
        <time>2010-01-01T02:34:32Z</time>
      </trkpt>
      <trkpt lat="47.2959" lon="6.95383">
        <ele>615</ele>
        <time>2010-01-01T02:34:38Z</time>
      </trkpt>
      <trkpt lat="47.29586" lon="6.95405">
        <ele>615</ele>
        <time>2010-01-01T02:34:44Z</time>
      </trkpt>
      <trkpt lat="47.29574" lon="6.95433">
        <ele>614</ele>
        <time>2010-01-01T02:34:53Z</time>
      </trkpt>
      <trkpt lat="47.29529" lon="6.955">
        <ele>601</ele>
        <time>2010-01-01T02:35:19Z</time>
      </trkpt>
      <trkpt lat="47.29516" lon="6.95549">
        <ele>600</ele>
        <time>2010-01-01T02:35:33Z</time>
      </trkpt>
      <trkpt lat="47.29508" lon="6.95609">
        <ele>601</ele>
        <time>2010-01-01T02:35:50Z</time>
      </trkpt>
      <trkpt lat="47.29519" lon="6.95721">
        <ele>611</ele>
        <time>2010-01-01T02:36:20Z</time>
      </trkpt>
      <trkpt lat="47.29545" lon="6.95844">
        <ele>621</ele>
        <time>2010-01-01T02:36:55Z</time>
      </trkpt>
      <trkpt lat="47.2958" lon="6.95915">
        <ele>630</ele>
        <time>2010-01-01T02:37:19Z</time>
      </trkpt>
      <trkpt lat="47.29635" lon="6.96044">
        <ele>653</ele>
        <time>2010-01-01T02:38:01Z</time>
      </trkpt>
      <trkpt lat="47.29651" lon="6.9607">
        <ele>658</ele>
        <time>2010-01-01T02:38:10Z</time>
      </trkpt>
      <trkpt lat="47.29705" lon="6.96123">
        <ele>680</ele>
        <time>2010-01-01T02:38:36Z</time>
      </trkpt>
      <trkpt lat="47.29704" lon="6.96123">
        <ele>679</ele>
        <time>2010-01-01T02:38:36Z</time>
      </trkpt>
      <trkpt lat="47.29729" lon="6.96146">
        <ele>689</ele>
        <time>2010-01-01T02:38:48Z</time>
      </trkpt>
      <trkpt lat="47.29736" lon="6.96168">
        <ele>688</ele>
        <time>2010-01-01T02:38:55Z</time>
      </trkpt>
      <trkpt lat="47.29745" lon="6.96205">
        <ele>692</ele>
        <time>2010-01-01T02:39:05Z</time>
      </trkpt>
      <trkpt lat="47.29754" lon="6.96168">
        <ele>695</ele>
        <time>2010-01-01T02:39:16Z</time>
      </trkpt>
      <trkpt lat="47.29708" lon="6.9594">
        <ele>706</ele>
        <time>2010-01-01T02:40:21Z</time>
      </trkpt>
      <trkpt lat="47.29704" lon="6.95901">
        <ele>706</ele>
        <time>2010-01-01T02:40:31Z</time>
      </trkpt>
      <trkpt lat="47.29705" lon="6.95874">
        <ele>709</ele>
        <time>2010-01-01T02:40:39Z</time>
      </trkpt>
      <trkpt lat="47.29718" lon="6.95778">
        <ele>720</ele>
        <time>2010-01-01T02:41:05Z</time>
      </trkpt>
      <trkpt lat="47.29723" lon="6.95689">
        <ele>725</ele>
        <time>2010-01-01T02:41:30Z</time>
      </trkpt>
      <trkpt lat="47.29732" lon="6.95636">
        <ele>725</ele>
        <time>2010-01-01T02:41:44Z</time>
      </trkpt>
      <trkpt lat="47.29746" lon="6.95603">
        <ele>728</ele>
        <time>2010-01-01T02:41:55Z</time>
      </trkpt>
      <trkpt lat="47.29748" lon="6.95599">
        <ele>729</ele>
        <time>2010-01-01T02:41:56Z</time>
      </trkpt>
      <trkpt lat="47.29746" lon="6.95647">
        <ele>733</ele>
        <time>2010-01-01T02:42:09Z</time>
      </trkpt>
      <trkpt lat="47.29748" lon="6.95705">
        <ele>740</ele>
        <time>2010-01-01T02:42:25Z</time>
      </trkpt>
      <trkpt lat="47.2976" lon="6.95797">
        <ele>740</ele>
        <time>2010-01-01T02:42:51Z</time>
      </trkpt>
      <trkpt lat="47.29786" lon="6.95871">
        <ele>746</ele>
        <time>2010-01-01T02:43:13Z</time>
      </trkpt>
      <trkpt lat="47.29813" lon="6.95933">
        <ele>748</ele>
        <time>2010-01-01T02:43:33Z</time>
      </trkpt>
      <trkpt lat="47.29873" lon="6.96006">
        <ele>762</ele>
        <time>2010-01-01T02:44:04Z</time>
      </trkpt>
      <trkpt lat="47.29924" lon="6.96078">
        <ele>770</ele>
        <time>2010-01-01T02:44:33Z</time>
      </trkpt>
      <trkpt lat="47.29976" lon="6.96146">
        <ele>775</ele>
        <time>2010-01-01T02:45:00Z</time>
      </trkpt>
      <trkpt lat="47.30057" lon="6.96205">
        <ele>797</ele>
        <time>2010-01-01T02:45:37Z</time>
      </trkpt>
      <trkpt lat="47.30129" lon="6.962">
        <ele>802</ele>
        <time>2010-01-01T02:46:05Z</time>
      </trkpt>
      <trkpt lat="47.30221" lon="6.96207">
        <ele>797</ele>
        <time>2010-01-01T02:46:42Z</time>
      </trkpt>
      <trkpt lat="47.3022" lon="6.96207">
        <ele>797</ele>
        <time>2010-01-01T02:46:43Z</time>
      </trkpt>
      <trkpt lat="47.30354" lon="6.96219">
        <ele>800</ele>
        <time>2010-01-01T02:47:36Z</time>
      </trkpt>
      <trkpt lat="47.30428" lon="6.96213">
        <ele>801</ele>
        <time>2010-01-01T02:48:06Z</time>
      </trkpt>
      <trkpt lat="47.30524" lon="6.96181">
        <ele>799</ele>
        <time>2010-01-01T02:48:46Z</time>
      </trkpt>
      <trkpt lat="47.30591" lon="6.96162">
        <ele>798</ele>
        <time>2010-01-01T02:49:13Z</time>
      </trkpt>
      <trkpt lat="47.30636" lon="6.96174">
        <ele>794</ele>
        <time>2010-01-01T02:49:31Z</time>
      </trkpt>
      <trkpt lat="47.30616" lon="6.9608">
        <ele>797</ele>
        <time>2010-01-01T02:49:58Z</time>
      </trkpt>
      <trkpt lat="47.30616" lon="6.96079">
        <ele>797</ele>
        <time>2010-01-01T02:49:58Z</time>
      </trkpt>
      <trkpt lat="47.30517" lon="6.95601">
        <ele>819</ele>
        <time>2010-01-01T02:52:14Z</time>
      </trkpt>
      <trkpt lat="47.30525" lon="6.95514">
        <ele>820</ele>
        <time>2010-01-01T02:52:38Z</time>
      </trkpt>
      <trkpt lat="47.30525" lon="6.95404">
        <ele>833</ele>
        <time>2010-01-01T02:53:08Z</time>
      </trkpt>
      <trkpt lat="47.30495" lon="6.9535">
        <ele>838</ele>
        <time>2010-01-01T02:53:26Z</time>
      </trkpt>
      <trkpt lat="47.30418" lon="6.95282">
        <ele>841</ele>
        <time>2010-01-01T02:54:02Z</time>
      </trkpt>
      <trkpt lat="47.30354" lon="6.95168">
        <ele>850</ele>
        <time>2010-01-01T02:54:43Z</time>
      </trkpt>
      <trkpt lat="47.30301" lon="6.95035">
        <ele>853</ele>
        <time>2010-01-01T02:55:24Z</time>
      </trkpt>
      <trkpt lat="47.30245" lon="6.94814">
        <ele>859</ele>
        <time>2010-01-01T02:56:29Z</time>
      </trkpt>
      <trkpt lat="47.30183" lon="6.94726">
        <ele>860</ele>
        <time>2010-01-01T02:57:03Z</time>
      </trkpt>
      <trkpt lat="47.30203" lon="6.94629">
        <ele>864</ele>
        <time>2010-01-01T02:57:30Z</time>
      </trkpt>
      <trkpt lat="47.30222" lon="6.94559">
        <ele>867</ele>
        <time>2010-01-01T02:57:51Z</time>
      </trkpt>
      <trkpt lat="47.30244" lon="6.94511">
        <ele>868</ele>
        <time>2010-01-01T02:58:07Z</time>
      </trkpt>
      <trkpt lat="47.30261" lon="6.94505">
        <ele>868</ele>
        <time>2010-01-01T02:58:14Z</time>
      </trkpt>
      <trkpt lat="47.30313" lon="6.94469">
        <ele>870</ele>
        <time>2010-01-01T02:58:37Z</time>
      </trkpt>
      <trkpt lat="47.3035" lon="6.94408">
        <ele>877</ele>
        <time>2010-01-01T02:58:59Z</time>
      </trkpt>
      <trkpt lat="47.30333" lon="6.94338">
        <ele>881</ele>
        <time>2010-01-01T02:59:19Z</time>
      </trkpt>
      <trkpt lat="47.30333" lon="6.9423">
        <ele>889</ele>
        <time>2010-01-01T02:59:48Z</time>
      </trkpt>
      <trkpt lat="47.30357" lon="6.9417">
        <ele>876</ele>
        <time>2010-01-01T03:00:07Z</time>
      </trkpt>
      <trkpt lat="47.30302" lon="6.94091">
        <ele>883</ele>
        <time>2010-01-01T03:00:38Z</time>
      </trkpt>
      <trkpt lat="47.30265" lon="6.94058">
        <ele>884</ele>
        <time>2010-01-01T03:00:55Z</time>
      </trkpt>
      <trkpt lat="47.3021" lon="6.94016">
        <ele>886</ele>
        <time>2010-01-01T03:01:20Z</time>
      </trkpt>
      <trkpt lat="47.30161" lon="6.93988">
        <ele>887</ele>
        <time>2010-01-01T03:01:41Z</time>
      </trkpt>
      <trkpt lat="47.30134" lon="6.93968">
        <ele>887</ele>
        <time>2010-01-01T03:01:53Z</time>
      </trkpt>
      <trkpt lat="47.30097" lon="6.93909">
        <ele>889</ele>
        <time>2010-01-01T03:02:15Z</time>
      </trkpt>
      <trkpt lat="47.30015" lon="6.93746">
        <ele>895</ele>
        <time>2010-01-01T03:03:10Z</time>
      </trkpt>
      <trkpt lat="47.30002" lon="6.93729">
        <ele>897</ele>
        <time>2010-01-01T03:03:17Z</time>
      </trkpt>
      <trkpt lat="47.29991" lon="6.93694">
        <ele>899</ele>
        <time>2010-01-01T03:03:28Z</time>
      </trkpt>
      <trkpt lat="47.29975" lon="6.93664">
        <ele>901</ele>
        <time>2010-01-01T03:03:38Z</time>
      </trkpt>
      <trkpt lat="47.29966" lon="6.93656">
        <ele>901</ele>
        <time>2010-01-01T03:03:42Z</time>
      </trkpt>
      <trkpt lat="47.29963" lon="6.93647">
        <ele>900</ele>
        <time>2010-01-01T03:03:45Z</time>
      </trkpt>
      <trkpt lat="47.29889" lon="6.93583">
        <ele>891</ele>
        <time>2010-01-01T03:04:19Z</time>
      </trkpt>
      <trkpt lat="47.29846" lon="6.93573">
        <ele>886</ele>
        <time>2010-01-01T03:04:37Z</time>
      </trkpt>
      <trkpt lat="47.29803" lon="6.93572">
        <ele>883</ele>
        <time>2010-01-01T03:04:54Z</time>
      </trkpt>
      <trkpt lat="47.29723" lon="6.93617">
        <ele>880</ele>
        <time>2010-01-01T03:05:28Z</time>
      </trkpt>
      <trkpt lat="47.29696" lon="6.93607">
        <ele>878</ele>
        <time>2010-01-01T03:05:39Z</time>
      </trkpt>
      <trkpt lat="47.29596" lon="6.93485">
        <ele>868</ele>
        <time>2010-01-01T03:06:31Z</time>
      </trkpt>
      <trkpt lat="47.29485" lon="6.93338">
        <ele>861</ele>
        <time>2010-01-01T03:07:31Z</time>
      </trkpt>
      <trkpt lat="47.29439" lon="6.93253">
        <ele>861</ele>
        <time>2010-01-01T03:08:00Z</time>
      </trkpt>
      <trkpt lat="47.29441" lon="6.93232">
        <ele>862</ele>
        <time>2010-01-01T03:08:06Z</time>
      </trkpt>
      <trkpt lat="47.29439" lon="6.93212">
        <ele>863</ele>
        <time>2010-01-01T03:08:12Z</time>
      </trkpt>
      <trkpt lat="47.29429" lon="6.93199">
        <ele>862</ele>
        <time>2010-01-01T03:08:17Z</time>
      </trkpt>
      <trkpt lat="47.29391" lon="6.93172">
        <ele>860</ele>
        <time>2010-01-01T03:08:34Z</time>
      </trkpt>
      <trkpt lat="47.29371" lon="6.93152">
        <ele>859</ele>
        <time>2010-01-01T03:08:44Z</time>
      </trkpt>
      <trkpt lat="47.29307" lon="6.93074">
        <ele>863</ele>
        <time>2010-01-01T03:09:17Z</time>
      </trkpt>
      <trkpt lat="47.29232" lon="6.9303">
        <ele>856</ele>
        <time>2010-01-01T03:09:49Z</time>
      </trkpt>
      <trkpt lat="47.29197" lon="6.92998">
        <ele>852</ele>
        <time>2010-01-01T03:10:06Z</time>
      </trkpt>
      <trkpt lat="47.29196" lon="6.92998">
        <ele>852</ele>
        <time>2010-01-01T03:10:06Z</time>
      </trkpt>
      <trkpt lat="47.29084" lon="6.92898">
        <ele>844</ele>
        <time>2010-01-01T03:10:58Z</time>
      </trkpt>
      <trkpt lat="47.28968" lon="6.92739">
        <ele>830</ele>
        <time>2010-01-01T03:12:02Z</time>
      </trkpt>
      <trkpt lat="47.28939" lon="6.92683">
        <ele>829</ele>
        <time>2010-01-01T03:12:21Z</time>
      </trkpt>
      <trkpt lat="47.28848" lon="6.92548">
        <ele>818</ele>
        <time>2010-01-01T03:13:13Z</time>
      </trkpt>
      <trkpt lat="47.28725" lon="6.92407">
        <ele>800</ele>
        <time>2010-01-01T03:14:15Z</time>
      </trkpt>
      <trkpt lat="47.28669" lon="6.9231">
        <ele>795</ele>
        <time>2010-01-01T03:14:50Z</time>
      </trkpt>
      <trkpt lat="47.28608" lon="6.92149">
        <ele>785</ele>
        <time>2010-01-01T03:15:40Z</time>
      </trkpt>
      <trkpt lat="47.28591" lon="6.92074">
        <ele>790</ele>
        <time>2010-01-01T03:16:01Z</time>
      </trkpt>
      <trkpt lat="47.28586" lon="6.92067">
        <ele>790</ele>
        <time>2010-01-01T03:16:04Z</time>
      </trkpt>
      <trkpt lat="47.28586" lon="6.92066">
        <ele>790</ele>
        <time>2010-01-01T03:16:04Z</time>
      </trkpt>
      <trkpt lat="47.28583" lon="6.92063">
        <ele>790</ele>
        <time>2010-01-01T03:16:06Z</time>
      </trkpt>
      <trkpt lat="47.28576" lon="6.92068">
        <ele>789</ele>
        <time>2010-01-01T03:16:09Z</time>
      </trkpt>
      <trkpt lat="47.28563" lon="6.92124">
        <ele>777</ele>
        <time>2010-01-01T03:16:25Z</time>
      </trkpt>
      <trkpt lat="47.28542" lon="6.92123">
        <ele>776</ele>
        <time>2010-01-01T03:16:33Z</time>
      </trkpt>
      <trkpt lat="47.28516" lon="6.92119">
        <ele>778</ele>
        <time>2010-01-01T03:16:44Z</time>
      </trkpt>
      <trkpt lat="47.28486" lon="6.92083">
        <ele>783</ele>
        <time>2010-01-01T03:16:59Z</time>
      </trkpt>
      <trkpt lat="47.28437" lon="6.92015">
        <ele>787</ele>
        <time>2010-01-01T03:17:26Z</time>
      </trkpt>
      <trkpt lat="47.28402" lon="6.9199">
        <ele>791</ele>
        <time>2010-01-01T03:17:42Z</time>
      </trkpt>
      <trkpt lat="47.28286" lon="6.91921">
        <ele>793</ele>
        <time>2010-01-01T03:18:32Z</time>
      </trkpt>
      <trkpt lat="47.28165" lon="6.91777">
        <ele>799</ele>
        <time>2010-01-01T03:19:34Z</time>
      </trkpt>
      <trkpt lat="47.28147" lon="6.91921">
        <ele>810</ele>
        <time>2010-01-01T03:20:14Z</time>
      </trkpt>
      <trkpt lat="47.28088" lon="6.91781">
        <ele>825</ele>
        <time>2010-01-01T03:20:59Z</time>
      </trkpt>
      <trkpt lat="47.2809" lon="6.91684">
        <ele>830</ele>
        <time>2010-01-01T03:21:25Z</time>
      </trkpt>
      <trkpt lat="47.28143" lon="6.91602">
        <ele>831</ele>
        <time>2010-01-01T03:21:56Z</time>
      </trkpt>
      <trkpt lat="47.28126" lon="6.91574">
        <ele>834</ele>
        <time>2010-01-01T03:22:06Z</time>
      </trkpt>
      <trkpt lat="47.28095" lon="6.91546">
        <ele>838</ele>
        <time>2010-01-01T03:22:20Z</time>
      </trkpt>
      <trkpt lat="47.28082" lon="6.91525">
        <ele>840</ele>
        <time>2010-01-01T03:22:28Z</time>
      </trkpt>
      <trkpt lat="47.28083" lon="6.91506">
        <ele>840</ele>
        <time>2010-01-01T03:22:33Z</time>
      </trkpt>
      <trkpt lat="47.2808" lon="6.91476">
        <ele>840</ele>
        <time>2010-01-01T03:22:42Z</time>
      </trkpt>
      <trkpt lat="47.2808" lon="6.91423">
        <ele>843</ele>
        <time>2010-01-01T03:22:56Z</time>
      </trkpt>
      <trkpt lat="47.28015" lon="6.91425">
        <ele>853</ele>
        <time>2010-01-01T03:23:22Z</time>
      </trkpt>
      <trkpt lat="47.28015" lon="6.91406">
        <ele>854</ele>
        <time>2010-01-01T03:23:27Z</time>
      </trkpt>
      <trkpt lat="47.28009" lon="6.91423">
        <ele>854</ele>
        <time>2010-01-01T03:23:32Z</time>
      </trkpt>
      <trkpt lat="47.28015" lon="6.91406">
        <ele>854</ele>
        <time>2010-01-01T03:23:38Z</time>
      </trkpt>
      <trkpt lat="47.28018" lon="6.91249">
        <ele>859</ele>
        <time>2010-01-01T03:24:20Z</time>
      </trkpt>
      <trkpt lat="47.28031" lon="6.91182">
        <ele>860</ele>
        <time>2010-01-01T03:24:39Z</time>
      </trkpt>
      <trkpt lat="47.28036" lon="6.91144">
        <ele>863</ele>
        <time>2010-01-01T03:24:50Z</time>
      </trkpt>
      <trkpt lat="47.28035" lon="6.91109">
        <ele>864</ele>
        <time>2010-01-01T03:24:59Z</time>
      </trkpt>
      <trkpt lat="47.27998" lon="6.90958">
        <ele>862</ele>
        <time>2010-01-01T03:25:43Z</time>
      </trkpt>
      <trkpt lat="47.27968" lon="6.9077">
        <ele>859</ele>
        <time>2010-01-01T03:26:35Z</time>
      </trkpt>
      <trkpt lat="47.27941" lon="6.90632">
        <ele>856</ele>
        <time>2010-01-01T03:27:14Z</time>
      </trkpt>
      <trkpt lat="47.27877" lon="6.90366">
        <ele>852</ele>
        <time>2010-01-01T03:28:31Z</time>
      </trkpt>
      <trkpt lat="47.27857" lon="6.90285">
        <ele>853</ele>
        <time>2010-01-01T03:28:54Z</time>
      </trkpt>
      <trkpt lat="47.27786" lon="6.90094">
        <ele>851</ele>
        <time>2010-01-01T03:29:53Z</time>
      </trkpt>
      <trkpt lat="47.2777" lon="6.90021">
        <ele>848</ele>
        <time>2010-01-01T03:30:14Z</time>
      </trkpt>
      <trkpt lat="47.27728" lon="6.89761">
        <ele>848</ele>
        <time>2010-01-01T03:31:27Z</time>
      </trkpt>
      <trkpt lat="47.27748" lon="6.89752">
        <ele>852</ele>
        <time>2010-01-01T03:31:35Z</time>
      </trkpt>
      <trkpt lat="47.27788" lon="6.89702">
        <ele>858</ele>
        <time>2010-01-01T03:31:56Z</time>
      </trkpt>
      <trkpt lat="47.27794" lon="6.89694">
        <ele>858</ele>
        <time>2010-01-01T03:31:59Z</time>
      </trkpt>
      <trkpt lat="47.27855" lon="6.89647">
        <ele>861</ele>
        <time>2010-01-01T03:32:27Z</time>
      </trkpt>
      <trkpt lat="47.27902" lon="6.89636">
        <ele>862</ele>
        <time>2010-01-01T03:32:46Z</time>
      </trkpt>
      <trkpt lat="47.27921" lon="6.89644">
        <ele>861</ele>
        <time>2010-01-01T03:32:54Z</time>
      </trkpt>
      <trkpt lat="47.2792" lon="6.89592">
        <ele>862</ele>
        <time>2010-01-01T03:33:08Z</time>
      </trkpt>
      <trkpt lat="47.27849" lon="6.8954">
        <ele>869</ele>
        <time>2010-01-01T03:33:40Z</time>
      </trkpt>
      <trkpt lat="47.27785" lon="6.89586">
        <ele>858</ele>
        <time>2010-01-01T03:34:08Z</time>
      </trkpt>
      <trkpt lat="47.27765" lon="6.89558">
        <ele>859</ele>
        <time>2010-01-01T03:34:19Z</time>
      </trkpt>
      <trkpt lat="47.27757" lon="6.89464">
        <ele>859</ele>
        <time>2010-01-01T03:34:45Z</time>
      </trkpt>
      <trkpt lat="47.27747" lon="6.89422">
        <ele>857</ele>
        <time>2010-01-01T03:34:57Z</time>
      </trkpt>
      <trkpt lat="47.27746" lon="6.89358">
        <ele>857</ele>
        <time>2010-01-01T03:35:15Z</time>
      </trkpt>
      <trkpt lat="47.27756" lon="6.89276">
        <ele>858</ele>
        <time>2010-01-01T03:35:37Z</time>
      </trkpt>
      <trkpt lat="47.27759" lon="6.89162">
        <ele>858</ele>
        <time>2010-01-01T03:36:08Z</time>
      </trkpt>
      <trkpt lat="47.27758" lon="6.89123">
        <ele>859</ele>
        <time>2010-01-01T03:36:19Z</time>
      </trkpt>
      <trkpt lat="47.27758" lon="6.89122">
        <ele>859</ele>
        <time>2010-01-01T03:36:19Z</time>
      </trkpt>
      <trkpt lat="47.27757" lon="6.89091">
        <ele>857</ele>
        <time>2010-01-01T03:36:27Z</time>
      </trkpt>
      <trkpt lat="47.27779" lon="6.89044">
        <ele>860</ele>
        <time>2010-01-01T03:36:43Z</time>
      </trkpt>
      <trkpt lat="47.27805" lon="6.88995">
        <ele>862</ele>
        <time>2010-01-01T03:37:00Z</time>
      </trkpt>
      <trkpt lat="47.27825" lon="6.88922">
        <ele>862</ele>
        <time>2010-01-01T03:37:21Z</time>
      </trkpt>
      <trkpt lat="47.27834" lon="6.88866">
        <ele>860</ele>
        <time>2010-01-01T03:37:37Z</time>
      </trkpt>
      <trkpt lat="47.27866" lon="6.88736">
        <ele>851</ele>
        <time>2010-01-01T03:38:14Z</time>
      </trkpt>
      <trkpt lat="47.27921" lon="6.886">
        <ele>848</ele>
        <time>2010-01-01T03:38:57Z</time>
      </trkpt>
      <trkpt lat="47.27965" lon="6.88484">
        <ele>846</ele>
        <time>2010-01-01T03:39:34Z</time>
      </trkpt>
      <trkpt lat="47.28002" lon="6.88382">
        <ele>837</ele>
        <time>2010-01-01T03:40:05Z</time>
      </trkpt>
      <trkpt lat="47.28002" lon="6.8817">
        <ele>825</ele>
        <time>2010-01-01T03:41:03Z</time>
      </trkpt>
      <trkpt lat="47.27994" lon="6.88027">
        <ele>824</ele>
        <time>2010-01-01T03:41:41Z</time>
      </trkpt>
      <trkpt lat="47.27999" lon="6.8786">
        <ele>808</ele>
        <time>2010-01-01T03:42:27Z</time>
      </trkpt>
      <trkpt lat="47.28003" lon="6.87796">
        <ele>805</ele>
        <time>2010-01-01T03:42:44Z</time>
      </trkpt>
      <trkpt lat="47.28011" lon="6.87732">
        <ele>802</ele>
        <time>2010-01-01T03:43:02Z</time>
      </trkpt>
      <trkpt lat="47.28053" lon="6.87625">
        <ele>795</ele>
        <time>2010-01-01T03:43:36Z</time>
      </trkpt>
      <trkpt lat="47.28138" lon="6.87424">
        <ele>794</ele>
        <time>2010-01-01T03:44:40Z</time>
      </trkpt>
      <trkpt lat="47.28197" lon="6.87301">
        <ele>793</ele>
        <time>2010-01-01T03:45:21Z</time>
      </trkpt>
      <trkpt lat="47.28246" lon="6.87215">
        <ele>789</ele>
        <time>2010-01-01T03:45:51Z</time>
      </trkpt>
      <trkpt lat="47.28261" lon="6.87196">
        <ele>788</ele>
        <time>2010-01-01T03:45:59Z</time>
      </trkpt>
      <trkpt lat="47.28262" lon="6.86966">
        <ele>782</ele>
        <time>2010-01-01T03:47:02Z</time>
      </trkpt>
      <trkpt lat="47.28261" lon="6.86944">
        <ele>781</ele>
        <time>2010-01-01T03:47:08Z</time>
      </trkpt>
      <trkpt lat="47.28257" lon="6.86924">
        <ele>781</ele>
        <time>2010-01-01T03:47:13Z</time>
      </trkpt>
      <trkpt lat="47.28247" lon="6.86903">
        <ele>780</ele>
        <time>2010-01-01T03:47:20Z</time>
      </trkpt>
      <trkpt lat="47.28236" lon="6.86887">
        <ele>778</ele>
        <time>2010-01-01T03:47:26Z</time>
      </trkpt>
      <trkpt lat="47.28222" lon="6.86859">
        <ele>777</ele>
        <time>2010-01-01T03:47:36Z</time>
      </trkpt>
      <trkpt lat="47.28218" lon="6.86841">
        <ele>776</ele>
        <time>2010-01-01T03:47:41Z</time>
      </trkpt>
      <trkpt lat="47.28218" lon="6.8684">
        <ele>776</ele>
        <time>2010-01-01T03:47:41Z</time>
      </trkpt>
      <trkpt lat="47.28217" lon="6.86832">
        <ele>776</ele>
        <time>2010-01-01T03:47:44Z</time>
      </trkpt>
      <trkpt lat="47.28208" lon="6.86812">
        <ele>775</ele>
        <time>2010-01-01T03:47:50Z</time>
      </trkpt>
      <trkpt lat="47.2821" lon="6.8677">
        <ele>776</ele>
        <time>2010-01-01T03:48:02Z</time>
      </trkpt>
      <trkpt lat="47.28208" lon="6.86724">
        <ele>776</ele>
        <time>2010-01-01T03:48:14Z</time>
      </trkpt>
      <trkpt lat="47.28264" lon="6.86528">
        <ele>771</ele>
        <time>2010-01-01T03:49:12Z</time>
      </trkpt>
      <trkpt lat="47.28264" lon="6.86491">
        <ele>772</ele>
        <time>2010-01-01T03:49:22Z</time>
      </trkpt>
      <trkpt lat="47.28275" lon="6.86474">
        <ele>772</ele>
        <time>2010-01-01T03:49:28Z</time>
      </trkpt>
      <trkpt lat="47.28289" lon="6.86416">
        <ele>775</ele>
        <time>2010-01-01T03:49:45Z</time>
      </trkpt>
      <trkpt lat="47.28387" lon="6.86208">
        <ele>780</ele>
        <time>2010-01-01T03:50:54Z</time>
      </trkpt>
      <trkpt lat="47.28407" lon="6.86158">
        <ele>781</ele>
        <time>2010-01-01T03:51:09Z</time>
      </trkpt>
      <trkpt lat="47.28411" lon="6.86114">
        <ele>782</ele>
        <time>2010-01-01T03:51:22Z</time>
      </trkpt>
      <trkpt lat="47.28399" lon="6.85999">
        <ele>781</ele>
        <time>2010-01-01T03:51:53Z</time>
      </trkpt>
      <trkpt lat="47.28402" lon="6.85939">
        <ele>781</ele>
        <time>2010-01-01T03:52:09Z</time>
      </trkpt>
      <trkpt lat="47.28423" lon="6.85857">
        <ele>782</ele>
        <time>2010-01-01T03:52:33Z</time>
      </trkpt>
      <trkpt lat="47.28438" lon="6.85814">
        <ele>785</ele>
        <time>2010-01-01T03:52:46Z</time>
      </trkpt>
      <trkpt lat="47.28481" lon="6.85741">
        <ele>792</ele>
        <time>2010-01-01T03:53:13Z</time>
      </trkpt>
      <trkpt lat="47.28553" lon="6.85673">
        <ele>803</ele>
        <time>2010-01-01T03:53:47Z</time>
      </trkpt>
      <trkpt lat="47.28595" lon="6.85618">
        <ele>812</ele>
        <time>2010-01-01T03:54:09Z</time>
      </trkpt>
      <trkpt lat="47.28624" lon="6.85606">
        <ele>816</ele>
        <time>2010-01-01T03:54:21Z</time>
      </trkpt>
      <trkpt lat="47.28646" lon="6.85605">
        <ele>821</ele>
        <time>2010-01-01T03:54:30Z</time>
      </trkpt>
      <trkpt lat="47.28704" lon="6.85629">
        <ele>829</ele>
        <time>2010-01-01T03:54:54Z</time>
      </trkpt>
      <trkpt lat="47.28763" lon="6.8568">
        <ele>831</ele>
        <time>2010-01-01T03:55:22Z</time>
      </trkpt>
      <trkpt lat="47.28775" lon="6.8568">
        <ele>834</ele>
        <time>2010-01-01T03:55:27Z</time>
      </trkpt>
      <trkpt lat="47.28786" lon="6.85664">
        <ele>839</ele>
        <time>2010-01-01T03:55:33Z</time>
      </trkpt>
      <trkpt lat="47.28789" lon="6.85634">
        <ele>844</ele>
        <time>2010-01-01T03:55:41Z</time>
      </trkpt>
      <trkpt lat="47.28772" lon="6.85542">
        <ele>855</ele>
        <time>2010-01-01T03:56:07Z</time>
      </trkpt>
      <trkpt lat="47.28761" lon="6.85471">
        <ele>857</ele>
        <time>2010-01-01T03:56:27Z</time>
      </trkpt>
      <trkpt lat="47.28768" lon="6.85389">
        <ele>859</ele>
        <time>2010-01-01T03:56:49Z</time>
      </trkpt>
      <trkpt lat="47.28778" lon="6.85317">
        <ele>858</ele>
        <time>2010-01-01T03:57:09Z</time>
      </trkpt>
      <trkpt lat="47.28784" lon="6.85255">
        <ele>855</ele>
        <time>2010-01-01T03:57:26Z</time>
      </trkpt>
      <trkpt lat="47.28782" lon="6.85239">
        <ele>854</ele>
        <time>2010-01-01T03:57:30Z</time>
      </trkpt>
      <trkpt lat="47.28782" lon="6.85238">
        <ele>853</ele>
        <time>2010-01-01T03:57:31Z</time>
      </trkpt>
      <trkpt lat="47.2878" lon="6.85207">
        <ele>852</ele>
        <time>2010-01-01T03:57:39Z</time>
      </trkpt>
      <trkpt lat="47.28854" lon="6.8507">
        <ele>847</ele>
        <time>2010-01-01T03:58:27Z</time>
      </trkpt>
      <trkpt lat="47.2887" lon="6.85046">
        <ele>849</ele>
        <time>2010-01-01T03:58:36Z</time>
      </trkpt>
      <trkpt lat="47.28884" lon="6.85034">
        <ele>851</ele>
        <time>2010-01-01T03:58:42Z</time>
      </trkpt>
      <trkpt lat="47.28946" lon="6.85017">
        <ele>856</ele>
        <time>2010-01-01T03:59:08Z</time>
      </trkpt>
      <trkpt lat="47.29008" lon="6.84959">
        <ele>850</ele>
        <time>2010-01-01T03:59:37Z</time>
      </trkpt>
      <trkpt lat="47.29081" lon="6.84972">
        <ele>845</ele>
        <time>2010-01-01T04:00:06Z</time>
      </trkpt>
      <trkpt lat="47.29122" lon="6.84942">
        <ele>842</ele>
        <time>2010-01-01T04:00:25Z</time>
      </trkpt>
      <trkpt lat="47.29146" lon="6.84908">
        <ele>840</ele>
        <time>2010-01-01T04:00:38Z</time>
      </trkpt>
      <trkpt lat="47.29199" lon="6.8488">
        <ele>835</ele>
        <time>2010-01-01T04:01:01Z</time>
      </trkpt>
      <trkpt lat="47.29226" lon="6.84848">
        <ele>831</ele>
        <time>2010-01-01T04:01:14Z</time>
      </trkpt>
      <trkpt lat="47.29241" lon="6.84822">
        <ele>826</ele>
        <time>2010-01-01T04:01:24Z</time>
      </trkpt>
      <trkpt lat="47.29259" lon="6.84778">
        <ele>820</ele>
        <time>2010-01-01T04:01:38Z</time>
      </trkpt>
      <trkpt lat="47.29275" lon="6.84751">
        <ele>817</ele>
        <time>2010-01-01T04:01:47Z</time>
      </trkpt>
      <trkpt lat="47.29298" lon="6.84725">
        <ele>812</ele>
        <time>2010-01-01T04:01:59Z</time>
      </trkpt>
      <trkpt lat="47.29334" lon="6.84699">
        <ele>808</ele>
        <time>2010-01-01T04:02:15Z</time>
      </trkpt>
      <trkpt lat="47.29387" lon="6.84653">
        <ele>802</ele>
        <time>2010-01-01T04:02:40Z</time>
      </trkpt>
      <trkpt lat="47.29422" lon="6.84625">
        <ele>795</ele>
        <time>2010-01-01T04:02:56Z</time>
      </trkpt>
      <trkpt lat="47.29481" lon="6.84611">
        <ele>791</ele>
        <time>2010-01-01T04:03:20Z</time>
      </trkpt>
      <trkpt lat="47.29537" lon="6.84583">
        <ele>784</ele>
        <time>2010-01-01T04:03:43Z</time>
      </trkpt>
      <trkpt lat="47.29569" lon="6.84576">
        <ele>780</ele>
        <time>2010-01-01T04:03:56Z</time>
      </trkpt>
      <trkpt lat="47.29604" lon="6.84576">
        <ele>776</ele>
        <time>2010-01-01T04:04:10Z</time>
      </trkpt>
      <trkpt lat="47.29641" lon="6.84582">
        <ele>771</ele>
        <time>2010-01-01T04:04:25Z</time>
      </trkpt>
      <trkpt lat="47.29688" lon="6.84601">
        <ele>764</ele>
        <time>2010-01-01T04:04:45Z</time>
      </trkpt>
      <trkpt lat="47.29766" lon="6.84662">
        <ele>762</ele>
        <time>2010-01-01T04:05:20Z</time>
      </trkpt>
      <trkpt lat="47.29801" lon="6.84691">
        <ele>761</ele>
        <time>2010-01-01T04:05:36Z</time>
      </trkpt>
      <trkpt lat="47.29845" lon="6.84757">
        <ele>762</ele>
        <time>2010-01-01T04:06:01Z</time>
      </trkpt>
      <trkpt lat="47.29882" lon="6.84794">
        <ele>759</ele>
        <time>2010-01-01T04:06:19Z</time>
      </trkpt>
      <trkpt lat="47.29881" lon="6.84794">
        <ele>760</ele>
        <time>2010-01-01T04:06:19Z</time>
      </trkpt>
      <trkpt lat="47.29929" lon="6.84841">
        <ele>755</ele>
        <time>2010-01-01T04:06:42Z</time>
      </trkpt>
      <trkpt lat="47.29961" lon="6.84848">
        <ele>751</ele>
        <time>2010-01-01T04:06:55Z</time>
      </trkpt>
      <trkpt lat="47.29993" lon="6.84844">
        <ele>750</ele>
        <time>2010-01-01T04:07:08Z</time>
      </trkpt>
      <trkpt lat="47.3003" lon="6.84821">
        <ele>748</ele>
        <time>2010-01-01T04:07:24Z</time>
      </trkpt>
      <trkpt lat="47.30066" lon="6.84776">
        <ele>745</ele>
        <time>2010-01-01T04:07:43Z</time>
      </trkpt>
      <trkpt lat="47.30117" lon="6.84627">
        <ele>735</ele>
        <time>2010-01-01T04:08:29Z</time>
      </trkpt>
      <trkpt lat="47.30158" lon="6.84428">
        <ele>731</ele>
        <time>2010-01-01T04:09:25Z</time>
      </trkpt>
      <trkpt lat="47.30272" lon="6.84033">
        <ele>739</ele>
        <time>2010-01-01T04:11:22Z</time>
      </trkpt>
      <trkpt lat="47.30285" lon="6.83968">
        <ele>741</ele>
        <time>2010-01-01T04:11:40Z</time>
      </trkpt>
      <trkpt lat="47.30293" lon="6.83901">
        <ele>740</ele>
        <time>2010-01-01T04:11:58Z</time>
      </trkpt>
      <trkpt lat="47.30312" lon="6.83863">
        <ele>737</ele>
        <time>2010-01-01T04:12:11Z</time>
      </trkpt>
      <trkpt lat="47.30329" lon="6.83817">
        <ele>736</ele>
        <time>2010-01-01T04:12:25Z</time>
      </trkpt>
      <trkpt lat="47.30338" lon="6.838">
        <ele>736</ele>
        <time>2010-01-01T04:12:31Z</time>
      </trkpt>
      <trkpt lat="47.30351" lon="6.83786">
        <ele>737</ele>
        <time>2010-01-01T04:12:38Z</time>
      </trkpt>
      <trkpt lat="47.30382" lon="6.83774">
        <ele>738</ele>
        <time>2010-01-01T04:12:51Z</time>
      </trkpt>
      <trkpt lat="47.30388" lon="6.83764">
        <ele>738</ele>
        <time>2010-01-01T04:12:54Z</time>
      </trkpt>
      <trkpt lat="47.30392" lon="6.83745">
        <ele>740</ele>
        <time>2010-01-01T04:13:00Z</time>
      </trkpt>
      <trkpt lat="47.30394" lon="6.83718">
        <ele>741</ele>
        <time>2010-01-01T04:13:07Z</time>
      </trkpt>
      <trkpt lat="47.30427" lon="6.83699">
        <ele>744</ele>
        <time>2010-01-01T04:13:21Z</time>
      </trkpt>
      <trkpt lat="47.30455" lon="6.83686">
        <ele>747</ele>
        <time>2010-01-01T04:13:33Z</time>
      </trkpt>
      <trkpt lat="47.30472" lon="6.8367">
        <ele>749</ele>
        <time>2010-01-01T04:13:41Z</time>
      </trkpt>
      <trkpt lat="47.30485" lon="6.83641">
        <ele>751</ele>
        <time>2010-01-01T04:13:50Z</time>
      </trkpt>
      <trkpt lat="47.305" lon="6.83564">
        <ele>752</ele>
        <time>2010-01-01T04:14:12Z</time>
      </trkpt>
      <trkpt lat="47.30506" lon="6.8353">
        <ele>752</ele>
        <time>2010-01-01T04:14:22Z</time>
      </trkpt>
      <trkpt lat="47.30518" lon="6.83529">
        <ele>752</ele>
        <time>2010-01-01T04:14:27Z</time>
      </trkpt>
      <trkpt lat="47.30547" lon="6.83505">
        <ele>751</ele>
        <time>2010-01-01T04:14:40Z</time>
      </trkpt>
      <trkpt lat="47.30556" lon="6.83495">
        <ele>751</ele>
        <time>2010-01-01T04:14:44Z</time>
      </trkpt>
      <trkpt lat="47.30656" lon="6.83423">
        <ele>749</ele>
        <time>2010-01-01T04:15:29Z</time>
      </trkpt>
      <trkpt lat="47.3078" lon="6.83405">
        <ele>744</ele>
        <time>2010-01-01T04:16:19Z</time>
      </trkpt>
      <trkpt lat="47.30877" lon="6.83411">
        <ele>741</ele>
        <time>2010-01-01T04:16:58Z</time>
      </trkpt>
      <trkpt lat="47.30984" lon="6.83444">
        <ele>737</ele>
        <time>2010-01-01T04:17:41Z</time>
      </trkpt>
      <trkpt lat="47.3116" lon="6.83504">
        <ele>726</ele>
        <time>2010-01-01T04:18:54Z</time>
      </trkpt>
      <trkpt lat="47.31211" lon="6.83538">
        <ele>723</ele>
        <time>2010-01-01T04:19:16Z</time>
      </trkpt>
      <trkpt lat="47.31264" lon="6.83525">
        <ele>720</ele>
        <time>2010-01-01T04:19:38Z</time>
      </trkpt>
      <trkpt lat="47.31355" lon="6.83551">
        <ele>712</ele>
        <time>2010-01-01T04:20:15Z</time>
      </trkpt>
      <trkpt lat="47.31485" lon="6.83581">
        <ele>705</ele>
        <time>2010-01-01T04:21:07Z</time>
      </trkpt>
      <trkpt lat="47.31546" lon="6.83588">
        <ele>703</ele>
        <time>2010-01-01T04:21:32Z</time>
      </trkpt>
      <trkpt lat="47.31545" lon="6.83588">
        <ele>703</ele>
        <time>2010-01-01T04:21:32Z</time>
      </trkpt>
      <trkpt lat="47.31595" lon="6.83594">
        <ele>706</ele>
        <time>2010-01-01T04:21:52Z</time>
      </trkpt>
      <trkpt lat="47.31678" lon="6.83589">
        <ele>710</ele>
        <time>2010-01-01T04:22:26Z</time>
      </trkpt>
      <trkpt lat="47.31708" lon="6.83628">
        <ele>708</ele>
        <time>2010-01-01T04:22:42Z</time>
      </trkpt>
      <trkpt lat="47.31768" lon="6.8389">
        <ele>687</ele>
        <time>2010-01-01T04:23:57Z</time>
      </trkpt>
      <trkpt lat="47.31844" lon="6.84133">
        <ele>675</ele>
        <time>2010-01-01T04:25:09Z</time>
      </trkpt>
      <trkpt lat="47.3184" lon="6.84235">
        <ele>664</ele>
        <time>2010-01-01T04:25:37Z</time>
      </trkpt>
      <trkpt lat="47.31891" lon="6.84241">
        <ele>669</ele>
        <time>2010-01-01T04:25:57Z</time>
      </trkpt>
      <trkpt lat="47.31904" lon="6.8406">
        <ele>673</ele>
        <time>2010-01-01T04:26:47Z</time>
      </trkpt>
      <trkpt lat="47.31915" lon="6.83966">
        <ele>666</ele>
        <time>2010-01-01T04:27:13Z</time>
      </trkpt>
      <trkpt lat="47.31936" lon="6.83755">
        <ele>657</ele>
        <time>2010-01-01T04:28:11Z</time>
      </trkpt>
      <trkpt lat="47.31899" lon="6.83549">
        <ele>657</ele>
        <time>2010-01-01T04:29:08Z</time>
      </trkpt>
      <trkpt lat="47.31881" lon="6.83349">
        <ele>638</ele>
        <time>2010-01-01T04:30:03Z</time>
      </trkpt>
      <trkpt lat="47.31855" lon="6.83143">
        <ele>638</ele>
        <time>2010-01-01T04:31:00Z</time>
      </trkpt>
      <trkpt lat="47.31846" lon="6.82965">
        <ele>621</ele>
        <time>2010-01-01T04:31:49Z</time>
      </trkpt>
      <trkpt lat="47.31706" lon="6.82506">
        <ele>598</ele>
        <time>2010-01-01T04:34:05Z</time>
      </trkpt>
      <trkpt lat="47.31676" lon="6.82348">
        <ele>585</ele>
        <time>2010-01-01T04:34:50Z</time>
      </trkpt>
      <trkpt lat="47.31693" lon="6.82338">
        <ele>584</ele>
        <time>2010-01-01T04:34:57Z</time>
      </trkpt>
      <trkpt lat="47.31712" lon="6.82327">
        <ele>580</ele>
        <time>2010-01-01T04:35:05Z</time>
      </trkpt>
      <trkpt lat="47.31798" lon="6.82555">
        <ele>573</ele>
        <time>2010-01-01T04:36:16Z</time>
      </trkpt>
      <trkpt lat="47.31983" lon="6.8286">
        <ele>541</ele>
        <time>2010-01-01T04:38:07Z</time>
      </trkpt>
      <trkpt lat="47.32031" lon="6.83083">
        <ele>533</ele>
        <time>2010-01-01T04:39:10Z</time>
      </trkpt>
      <trkpt lat="47.32063" lon="6.8327">
        <ele>530</ele>
        <time>2010-01-01T04:40:03Z</time>
      </trkpt>
      <trkpt lat="47.32107" lon="6.83428">
        <ele>521</ele>
        <time>2010-01-01T04:40:49Z</time>
      </trkpt>
      <trkpt lat="47.32195" lon="6.8364">
        <ele>504</ele>
        <time>2010-01-01T04:41:57Z</time>
      </trkpt>
      <trkpt lat="47.32183" lon="6.83795">
        <ele>507</ele>
        <time>2010-01-01T04:42:39Z</time>
      </trkpt>
      <trkpt lat="47.32208" lon="6.83944">
        <ele>486</ele>
        <time>2010-01-01T04:43:21Z</time>
      </trkpt>
      <trkpt lat="47.3223" lon="6.83957">
        <ele>474</ele>
        <time>2010-01-01T04:43:30Z</time>
      </trkpt>
      <trkpt lat="47.32235" lon="6.83954">
        <ele>473</ele>
        <time>2010-01-01T04:43:32Z</time>
      </trkpt>
      <trkpt lat="47.32258" lon="6.83935">
        <ele>469</ele>
        <time>2010-01-01T04:43:43Z</time>
      </trkpt>
      <trkpt lat="47.32272" lon="6.83906">
        <ele>468</ele>
        <time>2010-01-01T04:43:52Z</time>
      </trkpt>
      <trkpt lat="47.3228" lon="6.83876">
        <ele>466</ele>
        <time>2010-01-01T04:44:01Z</time>
      </trkpt>
      <trkpt lat="47.32277" lon="6.83824">
        <ele>466</ele>
        <time>2010-01-01T04:44:15Z</time>
      </trkpt>
      <trkpt lat="47.3227" lon="6.83768">
        <ele>463</ele>
        <time>2010-01-01T04:44:31Z</time>
      </trkpt>
      <trkpt lat="47.32263" lon="6.83684">
        <ele>458</ele>
        <time>2010-01-01T04:44:54Z</time>
      </trkpt>
      <trkpt lat="47.32262" lon="6.83647">
        <ele>456</ele>
        <time>2010-01-01T04:45:04Z</time>
      </trkpt>
      <trkpt lat="47.3227" lon="6.83627">
        <ele>455</ele>
        <time>2010-01-01T04:45:10Z</time>
      </trkpt>
      <trkpt lat="47.32294" lon="6.83576">
        <ele>455</ele>
        <time>2010-01-01T04:45:27Z</time>
      </trkpt>
      <trkpt lat="47.32322" lon="6.83537">
        <ele>452</ele>
        <time>2010-01-01T04:45:42Z</time>
      </trkpt>
      <trkpt lat="47.32398" lon="6.83499">
        <ele>454</ele>
        <time>2010-01-01T04:46:15Z</time>
      </trkpt>
      <trkpt lat="47.32411" lon="6.83469">
        <ele>455</ele>
        <time>2010-01-01T04:46:24Z</time>
      </trkpt>
      <trkpt lat="47.32427" lon="6.83418">
        <ele>451</ele>
        <time>2010-01-01T04:46:39Z</time>
      </trkpt>
      <trkpt lat="47.3243" lon="6.83386">
        <ele>447</ele>
        <time>2010-01-01T04:46:48Z</time>
      </trkpt>
      <trkpt lat="47.32427" lon="6.83353">
        <ele>445</ele>
        <time>2010-01-01T04:46:57Z</time>
      </trkpt>
      <trkpt lat="47.32376" lon="6.83326">
        <ele>449</ele>
        <time>2010-01-01T04:47:19Z</time>
      </trkpt>
      <trkpt lat="47.32356" lon="6.83293">
        <ele>449</ele>
        <time>2010-01-01T04:47:31Z</time>
      </trkpt>
      <trkpt lat="47.32345" lon="6.83245">
        <ele>446</ele>
        <time>2010-01-01T04:47:45Z</time>
      </trkpt>
      <trkpt lat="47.32351" lon="6.83107">
        <ele>431</ele>
        <time>2010-01-01T04:48:22Z</time>
      </trkpt>
      <trkpt lat="47.32334" lon="6.8308">
        <ele>433</ele>
        <time>2010-01-01T04:48:32Z</time>
      </trkpt>
      <trkpt lat="47.3232" lon="6.83041">
        <ele>433</ele>
        <time>2010-01-01T04:48:44Z</time>
      </trkpt>
      <trkpt lat="47.32311" lon="6.82999">
        <ele>427</ele>
        <time>2010-01-01T04:48:56Z</time>
      </trkpt>
      <trkpt lat="47.32257" lon="6.8289">
        <ele>426</ele>
        <time>2010-01-01T04:49:33Z</time>
      </trkpt>
      <trkpt lat="47.32202" lon="6.82762">
        <ele>413</ele>
        <time>2010-01-01T04:50:14Z</time>
      </trkpt>
      <trkpt lat="47.32143" lon="6.8261">
        <ele>407</ele>
        <time>2010-01-01T04:51:01Z</time>
      </trkpt>
      <trkpt lat="47.32098" lon="6.82483">
        <ele>408</ele>
        <time>2010-01-01T04:51:40Z</time>
      </trkpt>
      <trkpt lat="47.32071" lon="6.82378">
        <ele>404</ele>
        <time>2010-01-01T04:52:11Z</time>
      </trkpt>
      <trkpt lat="47.32062" lon="6.8231">
        <ele>401</ele>
        <time>2010-01-01T04:52:30Z</time>
      </trkpt>
      <trkpt lat="47.32053" lon="6.82278">
        <ele>400</ele>
        <time>2010-01-01T04:52:39Z</time>
      </trkpt>
      <trkpt lat="47.32036" lon="6.82239">
        <ele>401</ele>
        <time>2010-01-01T04:52:52Z</time>
      </trkpt>
      <trkpt lat="47.31967" lon="6.82099">
        <ele>395</ele>
        <time>2010-01-01T04:53:39Z</time>
      </trkpt>
      <trkpt lat="47.31926" lon="6.82027">
        <ele>391</ele>
        <time>2010-01-01T04:54:04Z</time>
      </trkpt>
      <trkpt lat="47.31894" lon="6.81966">
        <ele>389</ele>
        <time>2010-01-01T04:54:25Z</time>
      </trkpt>
      <trkpt lat="47.3185" lon="6.81902">
        <ele>388</ele>
        <time>2010-01-01T04:54:50Z</time>
      </trkpt>
      <trkpt lat="47.31826" lon="6.81853">
        <ele>386</ele>
        <time>2010-01-01T04:55:06Z</time>
      </trkpt>
      <trkpt lat="47.31817" lon="6.81812">
        <ele>383</ele>
        <time>2010-01-01T04:55:18Z</time>
      </trkpt>
      <trkpt lat="47.3181" lon="6.81755">
        <ele>384</ele>
        <time>2010-01-01T04:55:34Z</time>
      </trkpt>
      <trkpt lat="47.31802" lon="6.81666">
        <ele>381</ele>
        <time>2010-01-01T04:55:58Z</time>
      </trkpt>
      <trkpt lat="47.318" lon="6.81588">
        <ele>384</ele>
        <time>2010-01-01T04:56:19Z</time>
      </trkpt>
      <trkpt lat="47.31787" lon="6.81446">
        <ele>386</ele>
        <time>2010-01-01T04:56:58Z</time>
      </trkpt>
      <trkpt lat="47.31784" lon="6.81378">
        <ele>386</ele>
        <time>2010-01-01T04:57:16Z</time>
      </trkpt>
      <trkpt lat="47.31789" lon="6.81336">
        <ele>387</ele>
        <time>2010-01-01T04:57:28Z</time>
      </trkpt>
      <trkpt lat="47.31788" lon="6.81323">
        <ele>387</ele>
        <time>2010-01-01T04:57:32Z</time>
      </trkpt>
      <trkpt lat="47.31791" lon="6.81313">
        <ele>387</ele>
        <time>2010-01-01T04:57:35Z</time>
      </trkpt>
      <trkpt lat="47.31801" lon="6.81302">
        <ele>386</ele>
        <time>2010-01-01T04:57:40Z</time>
      </trkpt>
      <trkpt lat="47.31806" lon="6.81293">
        <ele>384</ele>
        <time>2010-01-01T04:57:43Z</time>
      </trkpt>
      <trkpt lat="47.31814" lon="6.81251">
        <ele>380</ele>
        <time>2010-01-01T04:57:55Z</time>
      </trkpt>
      <trkpt lat="47.31846" lon="6.81293">
        <ele>377</ele>
        <time>2010-01-01T04:58:12Z</time>
      </trkpt>
    </trkseg>
  </trk>
</gpx>